Wetterdaten: Montag, 29.08.2022
Datum Zeit Temp. Aussen Temp. o. S. Temp +5cm Feuchte Auss Luftdruck Regen Sonnenschein Regendauer Solar Windben Empfang
29.08.2022 00:00 17,2 C 16,1 C 12,8 C 71 % 1021,7 hPa 0,0 l/m 0 min 0 min 0 W/m 12,9 km/h (3 Bft) 97,87 %
29.08.2022 00:02 17,2 C 16,1 C 12,8 C 71 % 1021,7 hPa 0,0 l/m 0 min 0 min 0 W/m 12,9 km/h (3 Bft) 95,65 %
29.08.2022 00:04 17,2 C 16,1 C 12,8 C 72 % 1021,7 hPa 0,0 l/m 0 min 0 min 0 W/m 9,7 km/h (2 Bft) 97,87 %
29.08.2022 00:08 17,1 C 16,1 C 12,8 C 72 % 1021,7 hPa 0,0 l/m 0 min 0 min 0 W/m 12,9 km/h (3 Bft) 96,43 %
29.08.2022 00:17 17,0 C 16,1 C 12,8 C 72 % 1021,8 hPa 0,0 l/m 0 min 0 min 0 W/m 16,1 km/h (3 Bft) 100,00 %
29.08.2022 00:18 17,0 C 16,1 C 12,8 C 72 % 1021,8 hPa 0,0 l/m 0 min 0 min 0 W/m 3,2 km/h (1 Bft) 100,00 %
29.08.2022 00:23 16,9 C 16,1 C 12,8 C 72 % 1021,8 hPa 0,0 l/m 0 min 0 min 0 W/m 3,2 km/h (1 Bft) 100,00 %
29.08.2022 00:24 16,9 C 15,6 C 12,8 C 73 % 1021,8 hPa 0,0 l/m 0 min 0 min 0 W/m 6,4 km/h (2 Bft) 100,00 %
29.08.2022 00:26 16,9 C 15,6 C 12,2 C 73 % 1021,8 hPa 0,0 l/m 0 min 0 min 0 W/m 3,2 km/h (1 Bft) 97,87 %
29.08.2022 00:28 16,9 C 15,6 C 12,2 C 73 % 1021,8 hPa 0,0 l/m 0 min 0 min 0 W/m 3,2 km/h (1 Bft) 97,87 %
29.08.2022 00:30 16,8 C 15,6 C 12,2 C 73 % 1021,8 hPa 0,0 l/m 0 min 0 min 0 W/m 6,4 km/h (2 Bft) 97,87 %
29.08.2022 00:32 16,8 C 15,6 C 12,2 C 73 % 1021,8 hPa 0,0 l/m 0 min 0 min 0 W/m 6,4 km/h (2 Bft) 93,62 %
29.08.2022 00:34 16,8 C 15,6 C 12,2 C 73 % 1021,8 hPa 0,0 l/m 0 min 0 min 0 W/m 6,4 km/h (2 Bft) 95,74 %
29.08.2022 00:36 16,7 C 15,6 C 12,2 C 73 % 1021,8 hPa 0,0 l/m 0 min 0 min 0 W/m 9,7 km/h (2 Bft) 97,83 %
29.08.2022 00:38 16,7 C 15,6 C 12,2 C 73 % 1021,8 hPa 0,0 l/m 0 min 0 min 0 W/m 3,2 km/h (1 Bft) 97,87 %
29.08.2022 00:40 16,7 C 15,6 C 12,2 C 73 % 1021,8 hPa 0,0 l/m 0 min 0 min 0 W/m 9,7 km/h (2 Bft) 97,87 %
29.08.2022 00:42 16,7 C 15,6 C 12,2 C 74 % 1021,7 hPa 0,0 l/m 0 min 0 min 0 W/m 6,4 km/h (2 Bft) 97,87 %
29.08.2022 00:44 16,7 C 15,6 C 12,2 C 74 % 1021,8 hPa 0,0 l/m 0 min 0 min 0 W/m 3,2 km/h (1 Bft) 97,87 %
29.08.2022 00:46 16,6 C 15,6 C 12,2 C 74 % 1021,8 hPa 0,0 l/m 0 min 0 min 0 W/m 6,4 km/h (2 Bft) 97,87 %
29.08.2022 00:48 16,6 C 15,6 C 12,2 C 74 % 1021,8 hPa 0,0 l/m 0 min 0 min 0 W/m 6,4 km/h (2 Bft) 95,65 %
29.08.2022 00:50 16,6 C 15,6 C 12,2 C 74 % 1021,8 hPa 0,0 l/m 0 min 0 min 0 W/m 3,2 km/h (1 Bft) 97,73 %
29.08.2022 00:52 16,6 C 15,6 C 12,2 C 74 % 1021,7 hPa 0,0 l/m 0 min 0 min 0 W/m 3,2 km/h (1 Bft) 95,92 %
29.08.2022 00:54 16,6 C 15,6 C 12,2 C 74 % 1021,7 hPa 0,0 l/m 0 min 0 min 0 W/m 3,2 km/h (1 Bft) 93,62 %
29.08.2022 00:56 16,5 C 15,6 C 12,2 C 74 % 1021,7 hPa 0,0 l/m 0 min 0 min 0 W/m 3,2 km/h (1 Bft) 97,87 %
29.08.2022 00:58 16,5 C 15,0 C 12,2 C 74 % 1021,7 hPa 0,0 l/m 0 min 0 min 0 W/m 3,2 km/h (1 Bft) 97,87 %
29.08.2022 01:00 16,5 C 15,0 C 12,2 C 74 % 1021,7 hPa 0,0 l/m 0 min 0 min 0 W/m 3,2 km/h (1 Bft) 97,87 %
29.08.2022 01:02 16,4 C 15,0 C 12,2 C 74 % 1021,7 hPa 0,0 l/m 0 min 0 min 0 W/m 6,4 km/h (2 Bft) 95,65 %
29.08.2022 01:04 16,4 C 15,0 C 12,2 C 75 % 1021,7 hPa 0,0 l/m 0 min 0 min 0 W/m 3,2 km/h (1 Bft) 95,74 %
29.08.2022 01:06 16,4 C 15,0 C 11,7 C 75 % 1021,8 hPa 0,0 l/m 0 min 0 min 0 W/m 3,2 km/h (1 Bft) 93,62 %
29.08.2022 01:08 16,3 C 15,0 C 11,7 C 75 % 1021,8 hPa 0,0 l/m 0 min 0 min 0 W/m 3,2 km/h (1 Bft) 93,62 %
29.08.2022 01:10 16,3 C 15,0 C 11,7 C 75 % 1021,8 hPa 0,0 l/m 0 min 0 min 0 W/m 0,0 km/h (0 Bft) 95,74 %
29.08.2022 01:12 16,3 C 15,0 C 11,7 C 75 % 1021,8 hPa 0,0 l/m 0 min 0 min 0 W/m 3,2 km/h (1 Bft) 95,74 %
29.08.2022 01:14 16,2 C 15,0 C 11,7 C 75 % 1021,8 hPa 0,0 l/m 0 min 0 min 0 W/m 6,4 km/h (2 Bft) 95,65 %
29.08.2022 01:16 16,2 C 15,0 C 11,7 C 75 % 1021,8 hPa 0,0 l/m 0 min 0 min 0 W/m 3,2 km/h (1 Bft) 95,74 %
29.08.2022 01:18 16,2 C 15,0 C 11,7 C 76 % 1021,9 hPa 0,0 l/m 0 min 0 min 0 W/m 6,4 km/h (2 Bft) 97,87 %
29.08.2022 01:20 16,1 C 15,0 C 11,7 C 76 % 1021,9 hPa 0,0 l/m 0 min 0 min 0 W/m 3,2 km/h (1 Bft) 97,87 %
29.08.2022 01:22 16,1 C 15,0 C 11,7 C 76 % 1021,9 hPa 0,0 l/m 0 min 0 min 0 W/m 3,2 km/h (1 Bft) 95,74 %
29.08.2022 01:24 16,1 C 15,0 C 11,7 C 76 % 1021,8 hPa 0,0 l/m 0 min 0 min 0 W/m 9,7 km/h (2 Bft) 97,87 %
29.08.2022 01:26 16,1 C 15,0 C 11,7 C 76 % 1021,8 hPa 0,0 l/m 0 min 0 min 0 W/m 6,4 km/h (2 Bft) 95,65 %
29.08.2022 01:28 16,1 C 15,0 C 11,7 C 76 % 1021,8 hPa 0,0 l/m 0 min 0 min 0 W/m 3,2 km/h (1 Bft) 97,87 %
29.08.2022 01:30 16,1 C 15,0 C 11,7 C 76 % 1021,7 hPa 0,0 l/m 0 min 0 min 0 W/m 3,2 km/h (1 Bft) 93,62 %
29.08.2022 01:32 16,1 C 15,0 C 11,7 C 77 % 1021,7 hPa 0,0 l/m 0 min 0 min 0 W/m 3,2 km/h (1 Bft) 95,74 %
29.08.2022 01:34 16,0 C 15,0 C 11,7 C 77 % 1021,7 hPa 0,0 l/m 0 min 0 min 0 W/m 3,2 km/h (1 Bft) 97,87 %
29.08.2022 01:36 15,9 C 14,4 C 11,7 C 77 % 1021,7 hPa 0,0 l/m 0 min 0 min 0 W/m 3,2 km/h (1 Bft) 100,00 %
29.08.2022 01:38 15,9 C 14,4 C 11,7 C 77 % 1021,7 hPa 0,0 l/m 0 min 0 min 0 W/m 3,2 km/h (1 Bft) 100,00 %
29.08.2022 01:40 15,9 C 14,4 C 11,1 C 77 % 1021,7 hPa 0,0 l/m 0 min 0 min 0 W/m 3,2 km/h (1 Bft) 97,87 %
29.08.2022 01:42 15,8 C 14,4 C 11,1 C 78 % 1021,8 hPa 0,0 l/m 0 min 0 min 0 W/m 3,2 km/h (1 Bft) 100,00 %
29.08.2022 01:44 15,8 C 14,4 C 11,1 C 78 % 1021,8 hPa 0,0 l/m 0 min 0 min 0 W/m 3,2 km/h (1 Bft) 100,00 %
29.08.2022 01:46 15,8 C 14,4 C 11,1 C 78 % 1021,8 hPa 0,0 l/m 0 min 0 min 0 W/m 3,2 km/h (1 Bft) 100,00 %
29.08.2022 01:48 15,7 C 14,4 C 11,1 C 78 % 1021,8 hPa 0,0 l/m 0 min 0 min 0 W/m 0,0 km/h (0 Bft) 100,00 %
29.08.2022 01:50 15,7 C 14,4 C 11,1 C 78 % 1021,8 hPa 0,0 l/m 0 min 0 min 0 W/m 0,0 km/h (0 Bft) 100,00 %
29.08.2022 01:52 15,6 C 14,4 C 11,1 C 78 % 1021,8 hPa 0,0 l/m 0 min 0 min 0 W/m 3,2 km/h (1 Bft) 100,00 %
29.08.2022 01:54 15,6 C 14,4 C 11,1 C 78 % 1021,8 hPa 0,0 l/m 0 min 0 min 0 W/m 0,0 km/h (0 Bft) 97,87 %
29.08.2022 01:56 15,6 C 14,4 C 11,1 C 79 % 1021,8 hPa 0,0 l/m 0 min 0 min 0 W/m 0,0 km/h (0 Bft) 97,87 %
29.08.2022 01:58 15,6 C 14,4 C 11,1 C 79 % 1021,8 hPa 0,0 l/m 0 min 0 min 0 W/m 0,0 km/h (0 Bft) 100,00 %
29.08.2022 02:00 15,5 C 14,4 C 11,1 C 79 % 1021,7 hPa 0,0 l/m 0 min 0 min 0 W/m 0,0 km/h (0 Bft) 100,00 %
29.08.2022 02:02 15,5 C 13,9 C 11,1 C 79 % 1021,7 hPa 0,0 l/m 0 min 0 min 0 W/m 0,0 km/h (0 Bft) 97,83 %
29.08.2022 02:04 15,4 C 13,9 C 11,1 C 79 % 1021,7 hPa 0,0 l/m 0 min 0 min 0 W/m 0,0 km/h (0 Bft) 100,00 %
29.08.2022 02:06 15,4 C 13,9 C 11,1 C 79 % 1021,7 hPa 0,0 l/m 0 min 0 min 0 W/m 0,0 km/h (0 Bft) 97,87 %
29.08.2022 02:08 15,4 C 13,9 C 11,1 C 80 % 1021,7 hPa 0,0 l/m 0 min 0 min 0 W/m 0,0 km/h (0 Bft) 97,87 %
29.08.2022 02:10 15,4 C 13,9 C 11,1 C 80 % 1021,7 hPa 0,0 l/m 0 min 0 min 0 W/m 0,0 km/h (0 Bft) 95,74 %
29.08.2022 02:12 15,3 C 13,9 C 11,1 C 80 % 1021,7 hPa 0,0 l/m 0 min 0 min 0 W/m 0,0 km/h (0 Bft) 91,30 %
29.08.2022 02:14 15,3 C 13,9 C 11,1 C 80 % 1021,7 hPa 0,0 l/m 0 min 0 min 0 W/m 0,0 km/h (0 Bft) 97,87 %
29.08.2022 02:16 15,3 C 13,9 C 11,1 C 80 % 1021,7 hPa 0,0 l/m 0 min 0 min 0 W/m 0,0 km/h (0 Bft) 97,87 %
29.08.2022 02:18 15,2 C 13,9 C 11,1 C 80 % 1021,6 hPa 0,0 l/m 0 min 0 min 0 W/m 0,0 km/h (0 Bft) 97,87 %
29.08.2022 02:20 15,2 C 13,9 C 11,1 C 80 % 1021,7 hPa 0,0 l/m 0 min 0 min 0 W/m 0,0 km/h (0 Bft) 97,87 %
29.08.2022 02:22 15,2 C 13,9 C 11,1 C 80 % 1021,6 hPa 0,0 l/m 0 min 0 min 0 W/m 0,0 km/h (0 Bft) 95,74 %
29.08.2022 02:24 15,1 C 13,9 C 10,6 C 80 % 1021,6 hPa 0,0 l/m 0 min 0 min 0 W/m 0,0 km/h (0 Bft) 97,83 %
29.08.2022 02:26 15,1 C 13,9 C 10,6 C 81 % 1021,6 hPa 0,0 l/m 0 min 0 min 0 W/m 0,0 km/h (0 Bft) 97,87 %
29.08.2022 02:28 15,1 C 13,9 C 10,6 C 81 % 1021,6 hPa 0,0 l/m 0 min 0 min 0 W/m 0,0 km/h (0 Bft) 97,87 %
29.08.2022 02:30 15,1 C 13,3 C 10,6 C 81 % 1021,6 hPa 0,0 l/m 0 min 0 min 0 W/m 0,0 km/h (0 Bft) 97,87 %
29.08.2022 02:32 15,0 C 13,3 C 10,6 C 81 % 1021,6 hPa 0,0 l/m 0 min 0 min 0 W/m 0,0 km/h (0 Bft) 97,87 %
29.08.2022 02:34 15,0 C 13,3 C 10,6 C 81 % 1021,6 hPa 0,0 l/m 0 min 0 min 0 W/m 0,0 km/h (0 Bft) 97,87 %
29.08.2022 02:36 14,9 C 13,3 C 10,6 C 81 % 1021,6 hPa 0,0 l/m 0 min 0 min 0 W/m 0,0 km/h (0 Bft) 93,48 %
29.08.2022 02:38 14,9 C 13,3 C 10,6 C 82 % 1021,5 hPa 0,0 l/m 0 min 0 min 0 W/m 0,0 km/h (0 Bft) 95,74 %
29.08.2022 02:40 14,9 C 13,3 C 10,6 C 82 % 1021,6 hPa 0,0 l/m 0 min 0 min 0 W/m 0,0 km/h (0 Bft) 97,87 %
29.08.2022 02:42 14,8 C 13,3 C 10,6 C 82 % 1021,6 hPa 0,0 l/m 0 min 0 min 0 W/m 0,0 km/h (0 Bft) 97,87 %
29.08.2022 02:44 14,8 C 13,3 C 10,6 C 82 % 1021,6 hPa 0,0 l/m 0 min 0 min 0 W/m 0,0 km/h (0 Bft) 97,87 %
29.08.2022 02:46 14,8 C 13,3 C 10,0 C 82 % 1021,6 hPa 0,0 l/m 0 min 0 min 0 W/m 0,0 km/h (0 Bft) 95,74 %
29.08.2022 02:48 14,7 C 13,3 C 10,0 C 82 % 1021,7 hPa 0,0 l/m 0 min 0 min 0 W/m 0,0 km/h (0 Bft) 95,65 %
29.08.2022 02:50 14,7 C 12,8 C 10,0 C 82 % 1021,6 hPa 0,0 l/m 0 min 0 min 0 W/m 0,0 km/h (0 Bft) 97,87 %
29.08.2022 02:52 14,7 C 12,8 C 10,0 C 82 % 1021,7 hPa 0,0 l/m 0 min 0 min 0 W/m 0,0 km/h (0 Bft) 95,74 %
29.08.2022 02:54 14,6 C 12,8 C 10,0 C 82 % 1021,6 hPa 0,0 l/m 0 min 0 min 0 W/m 0,0 km/h (0 Bft) 97,87 %
29.08.2022 02:56 14,6 C 12,8 C 10,0 C 83 % 1021,7 hPa 0,0 l/m 0 min 0 min 0 W/m 0,0 km/h (0 Bft) 95,74 %
29.08.2022 02:58 14,6 C 12,8 C 10,0 C 82 % 1021,7 hPa 0,0 l/m 0 min 0 min 0 W/m 0,0 km/h (0 Bft) 95,74 %
29.08.2022 03:00 14,5 C 12,8 C 10,0 C 83 % 1021,7 hPa 0,0 l/m 0 min 0 min 0 W/m 0,0 km/h (0 Bft) 97,87 %
29.08.2022 03:02 14,4 C 12,8 C 10,0 C 83 % 1021,7 hPa 0,0 l/m 0 min 0 min 0 W/m 0,0 km/h (0 Bft) 97,87 %
29.08.2022 03:04 14,4 C 12,8 C 10,0 C 83 % 1021,7 hPa 0,0 l/m 0 min 0 min 0 W/m 0,0 km/h (0 Bft) 95,74 %
29.08.2022 03:06 14,4 C 12,8 C 10,0 C 83 % 1021,7 hPa 0,0 l/m 0 min 0 min 0 W/m 0,0 km/h (0 Bft) 97,87 %
29.08.2022 03:08 14,3 C 12,8 C 10,0 C 83 % 1021,7 hPa 0,0 l/m 0 min 0 min 0 W/m 0,0 km/h (0 Bft) 97,87 %
29.08.2022 03:10 14,3 C 12,8 C 10,0 C 84 % 1021,7 hPa 0,0 l/m 0 min 0 min 0 W/m 0,0 km/h (0 Bft) 97,83 %
29.08.2022 03:12 14,3 C 12,8 C 10,0 C 84 % 1021,7 hPa 0,0 l/m 0 min 0 min 0 W/m 0,0 km/h (0 Bft) 100,00 %
29.08.2022 03:14 14,3 C 12,8 C 10,0 C 84 % 1021,7 hPa 0,0 l/m 0 min 0 min 0 W/m 0,0 km/h (0 Bft) 100,00 %
29.08.2022 03:16 14,3 C 12,8 C 10,0 C 84 % 1021,7 hPa 0,0 l/m 0 min 0 min 0 W/m 0,0 km/h (0 Bft) 100,00 %
29.08.2022 03:18 14,3 C 12,8 C 10,0 C 84 % 1021,7 hPa 0,0 l/m 0 min 0 min 0 W/m 0,0 km/h (0 Bft) 100,00 %
29.08.2022 03:20 14,3 C 12,8 C 10,0 C 84 % 1021,7 hPa 0,0 l/m 0 min 0 min 0 W/m 0,0 km/h (0 Bft) 97,87 %
29.08.2022 03:22 14,2 C 12,8 C 10,0 C 84 % 1021,7 hPa 0,0 l/m 0 min 0 min 0 W/m 0,0 km/h (0 Bft) 100,00 %
29.08.2022 03:24 14,2 C 12,8 C 10,0 C 84 % 1021,7 hPa 0,0 l/m 0 min 0 min 0 W/m 0,0 km/h (0 Bft) 100,00 %
29.08.2022 03:26 14,1 C 12,2 C 10,0 C 84 % 1021,7 hPa 0,0 l/m 0 min 0 min 0 W/m 0,0 km/h (0 Bft) 100,00 %
29.08.2022 03:28 14,1 C 12,2 C 9,4 C 84 % 1021,7 hPa 0,0 l/m 0 min 0 min 0 W/m 0,0 km/h (0 Bft) 100,00 %
29.08.2022 03:30 14,1 C 12,2 C 9,4 C 85 % 1021,8 hPa 0,0 l/m 0 min 0 min 0 W/m 0,0 km/h (0 Bft) 100,00 %
29.08.2022 03:32 14,0 C 12,2 C 9,4 C 85 % 1021,8 hPa 0,0 l/m 0 min 0 min 0 W/m 0,0 km/h (0 Bft) 100,00 %
29.08.2022 03:34 13,9 C 12,2 C 9,4 C 84 % 1021,8 hPa 0,0 l/m 0 min 0 min 0 W/m 0,0 km/h (0 Bft) 100,00 %
29.08.2022 03:36 13,9 C 12,2 C 9,4 C 85 % 1021,8 hPa 0,0 l/m 0 min 0 min 0 W/m 0,0 km/h (0 Bft) 100,00 %
29.08.2022 03:38 13,9 C 12,2 C 9,4 C 85 % 1021,8 hPa 0,0 l/m 0 min 0 min 0 W/m 0,0 km/h (0 Bft) 100,00 %
29.08.2022 03:40 13,8 C 12,2 C 9,4 C 85 % 1021,9 hPa 0,0 l/m 0 min 0 min 0 W/m 0,0 km/h (0 Bft) 100,00 %
29.08.2022 03:42 13,8 C 12,2 C 9,4 C 85 % 1021,9 hPa 0,0 l/m 0 min 0 min 0 W/m 0,0 km/h (0 Bft) 100,00 %
29.08.2022 03:44 13,8 C 12,2 C 9,4 C 85 % 1021,9 hPa 0,0 l/m 0 min 0 min 0 W/m 0,0 km/h (0 Bft) 100,00 %
29.08.2022 03:46 13,7 C 12,2 C 9,4 C 85 % 1021,9 hPa 0,0 l/m 0 min 0 min 0 W/m 0,0 km/h (0 Bft) 97,83 %
29.08.2022 03:48 13,7 C 12,2 C 9,4 C 85 % 1021,9 hPa 0,0 l/m 0 min 0 min 0 W/m 0,0 km/h (0 Bft) 100,00 %
29.08.2022 03:50 13,7 C 12,2 C 9,4 C 85 % 1021,9 hPa 0,0 l/m 0 min 0 min 0 W/m 0,0 km/h (0 Bft) 100,00 %
29.08.2022 03:52 13,6 C 12,2 C 9,4 C 85 % 1021,9 hPa 0,0 l/m 0 min 0 min 0 W/m 0,0 km/h (0 Bft) 100,00 %
29.08.2022 03:54 13,6 C 12,2 C 9,4 C 85 % 1021,9 hPa 0,0 l/m 0 min 0 min 0 W/m 0,0 km/h (0 Bft) 100,00 %
29.08.2022 03:56 13,6 C 12,2 C 9,4 C 85 % 1022,0 hPa 0,0 l/m 0 min 0 min 0 W/m 0,0 km/h (0 Bft) 97,87 %
29.08.2022 03:58 13,6 C 12,2 C 9,4 C 85 % 1021,9 hPa 0,0 l/m 0 min 0 min 0 W/m 0,0 km/h (0 Bft) 100,00 %
29.08.2022 04:00 13,6 C 12,2 C 9,4 C 85 % 1021,9 hPa 0,0 l/m 0 min 0 min 0 W/m 0,0 km/h (0 Bft) 97,87 %
29.08.2022 04:02 13,6 C 12,2 C 9,4 C 85 % 1021,9 hPa 0,0 l/m 0 min 0 min 0 W/m 0,0 km/h (0 Bft) 97,87 %
29.08.2022 04:04 13,5 C 12,2 C 9,4 C 85 % 1021,9 hPa 0,0 l/m 0 min 0 min 0 W/m 0,0 km/h (0 Bft) 95,74 %
29.08.2022 04:06 13,5 C 12,2 C 9,4 C 86 % 1022,0 hPa 0,0 l/m 0 min 0 min 0 W/m 0,0 km/h (0 Bft) 95,74 %
29.08.2022 04:08 13,4 C 12,2 C 9,4 C 86 % 1022,0 hPa 0,0 l/m 0 min 0 min 0 W/m 0,0 km/h (0 Bft) 97,87 %
29.08.2022 04:10 13,4 C 12,2 C 9,4 C 86 % 1022,0 hPa 0,0 l/m 0 min 0 min 0 W/m 0,0 km/h (0 Bft) 97,83 %
29.08.2022 04:12 13,4 C 12,2 C 9,4 C 86 % 1021,9 hPa 0,0 l/m 0 min 0 min 0 W/m 0,0 km/h (0 Bft) 91,49 %
29.08.2022 04:14 13,4 C 12,2 C 9,4 C 86 % 1021,9 hPa 0,0 l/m 0 min 0 min 0 W/m 0,0 km/h (0 Bft) 93,62 %
29.08.2022 04:16 13,4 C 12,2 C 9,4 C 86 % 1021,9 hPa 0,0 l/m 0 min 0 min 0 W/m 0,0 km/h (0 Bft) 89,36 %
29.08.2022 04:18 13,4 C 12,2 C 9,4 C 86 % 1022,0 hPa 0,0 l/m 0 min 0 min 0 W/m 0,0 km/h (0 Bft) 93,62 %
29.08.2022 04:20 13,3 C 12,2 C 9,4 C 86 % 1022,0 hPa 0,0 l/m 0 min 0 min 0 W/m 0,0 km/h (0 Bft) 93,62 %
29.08.2022 04:22 13,3 C 12,2 C 9,4 C 86 % 1022,0 hPa 0,0 l/m 0 min 0 min 0 W/m 0,0 km/h (0 Bft) 93,48 %
29.08.2022 04:24 13,3 C 12,2 C 9,4 C 86 % 1022,1 hPa 0,0 l/m 0 min 0 min 0 W/m 0,0 km/h (0 Bft) 93,62 %
29.08.2022 04:26 13,3 C 12,2 C 9,4 C 86 % 1022,1 hPa 0,0 l/m 0 min 0 min 0 W/m 0,0 km/h (0 Bft) 93,62 %
29.08.2022 04:28 13,3 C 12,2 C 9,4 C 86 % 1022,1 hPa 0,0 l/m 0 min 0 min 0 W/m 0,0 km/h (0 Bft) 89,36 %
29.08.2022 04:30 13,2 C 12,2 C 9,4 C 86 % 1022,1 hPa 0,0 l/m 0 min 0 min 0 W/m 0,0 km/h (0 Bft) 93,62 %
29.08.2022 04:32 13,2 C 12,2 C 9,4 C 87 % 1022,1 hPa 0,0 l/m 0 min 0 min 0 W/m 0,0 km/h (0 Bft) 87,23 %
29.08.2022 04:34 13,2 C 12,2 C 9,4 C 87 % 1022,1 hPa 0,0 l/m 0 min 0 min 0 W/m 0,0 km/h (0 Bft) 91,30 %
29.08.2022 04:36 13,2 C 12,2 C 9,4 C 87 % 1022,1 hPa 0,0 l/m 0 min 0 min 0 W/m 0,0 km/h (0 Bft) 95,74 %
29.08.2022 04:38 13,2 C 12,2 C 8,9 C 87 % 1022,0 hPa 0,0 l/m 0 min 0 min 0 W/m 0,0 km/h (0 Bft) 93,62 %
29.08.2022 04:40 13,2 C 12,2 C 8,9 C 87 % 1022,0 hPa 0,0 l/m 0 min 0 min 0 W/m 0,0 km/h (0 Bft) 93,62 %
29.08.2022 04:42 13,1 C 12,2 C 8,9 C 87 % 1022,0 hPa 0,0 l/m 0 min 0 min 0 W/m 0,0 km/h (0 Bft) 93,62 %
29.08.2022 04:44 13,1 C 12,2 C 8,9 C 87 % 1022,0 hPa 0,0 l/m 0 min 0 min 0 W/m 0,0 km/h (0 Bft) 95,74 %
29.08.2022 04:46 13,1 C 11,7 C 8,9 C 87 % 1022,0 hPa 0,0 l/m 0 min 0 min 0 W/m 0,0 km/h (0 Bft) 95,65 %
29.08.2022 04:48 13,1 C 11,7 C 8,9 C 87 % 1022,0 hPa 0,0 l/m 0 min 0 min 0 W/m 0,0 km/h (0 Bft) 97,87 %
29.08.2022 04:50 13,1 C 11,7 C 8,9 C 87 % 1022,0 hPa 0,0 l/m 0 min 0 min 0 W/m 0,0 km/h (0 Bft) 97,87 %
29.08.2022 04:52 13,0 C 11,7 C 8,9 C 87 % 1022,0 hPa 0,0 l/m 0 min 0 min 0 W/m 0,0 km/h (0 Bft) 95,74 %
29.08.2022 04:54 13,0 C 11,7 C 8,9 C 87 % 1022,0 hPa 0,0 l/m 0 min 0 min 0 W/m 0,0 km/h (0 Bft) 95,74 %
29.08.2022 04:56 13,0 C 11,7 C 8,9 C 87 % 1022,0 hPa 0,0 l/m 0 min 0 min 0 W/m 0,0 km/h (0 Bft) 97,87 %
29.08.2022 04:58 12,9 C 11,7 C 8,9 C 87 % 1022,0 hPa 0,0 l/m 0 min 0 min 0 W/m 0,0 km/h (0 Bft) 97,83 %
29.08.2022 05:00 12,9 C 11,7 C 8,9 C 87 % 1022,0 hPa 0,0 l/m 0 min 0 min 0 W/m 0,0 km/h (0 Bft) 97,87 %
29.08.2022 05:02 12,9 C 11,7 C 8,9 C 87 % 1022,1 hPa 0,0 l/m 0 min 0 min 0 W/m 0,0 km/h (0 Bft) 97,87 %
29.08.2022 05:04 12,9 C 11,7 C 8,9 C 87 % 1022,0 hPa 0,0 l/m 0 min 0 min 0 W/m 0,0 km/h (0 Bft) 97,87 %
29.08.2022 05:06 12,8 C 11,7 C 8,9 C 87 % 1022,0 hPa 0,0 l/m 0 min 0 min 0 W/m 0,0 km/h (0 Bft) 97,92 %
29.08.2022 05:08 12,8 C 11,7 C 8,9 C 87 % 1022,0 hPa 0,0 l/m 0 min 0 min 0 W/m 0,0 km/h (0 Bft) 95,65 %
29.08.2022 05:10 12,8 C 11,7 C 8,9 C 87 % 1022,0 hPa 0,0 l/m 0 min 0 min 0 W/m 0,0 km/h (0 Bft) 100,00 %
29.08.2022 05:12 12,8 C 11,7 C 8,9 C 87 % 1021,9 hPa 0,0 l/m 0 min 0 min 0 W/m 0,0 km/h (0 Bft) 100,00 %
29.08.2022 05:14 12,8 C 11,7 C 8,9 C 87 % 1022,0 hPa 0,0 l/m 0 min 0 min 0 W/m 0,0 km/h (0 Bft) 100,00 %
29.08.2022 05:16 12,7 C 11,7 C 8,9 C 87 % 1021,9 hPa 0,0 l/m 0 min 0 min 0 W/m 0,0 km/h (0 Bft) 100,00 %
29.08.2022 05:18 12,7 C 11,7 C 8,9 C 87 % 1021,9 hPa 0,0 l/m 0 min 0 min 0 W/m 0,0 km/h (0 Bft) 97,87 %
29.08.2022 05:20 12,7 C 11,7 C 8,9 C 87 % 1021,9 hPa 0,0 l/m 0 min 0 min 0 W/m 0,0 km/h (0 Bft) 100,00 %
29.08.2022 05:22 12,7 C 11,7 C 8,9 C 87 % 1021,9 hPa 0,0 l/m 0 min 0 min 0 W/m 0,0 km/h (0 Bft) 100,00 %
29.08.2022 05:24 12,7 C 11,7 C 8,9 C 88 % 1021,9 hPa 0,0 l/m 0 min 0 min 0 W/m 0,0 km/h (0 Bft) 97,83 %
29.08.2022 05:26 12,7 C 11,7 C 8,9 C 88 % 1021,9 hPa 0,0 l/m 0 min 0 min 0 W/m 0,0 km/h (0 Bft) 100,00 %
29.08.2022 05:28 12,7 C 11,1 C 8,9 C 87 % 1021,8 hPa 0,0 l/m 0 min 0 min 0 W/m 0,0 km/h (0 Bft) 97,87 %
29.08.2022 05:30 12,6 C 11,1 C 8,9 C 87 % 1021,8 hPa 0,0 l/m 0 min 0 min 0 W/m 0,0 km/h (0 Bft) 100,00 %
29.08.2022 05:32 12,6 C 11,7 C 8,9 C 87 % 1021,8 hPa 0,0 l/m 0 min 0 min 0 W/m 0,0 km/h (0 Bft) 97,87 %
29.08.2022 05:34 12,6 C 11,7 C 8,9 C 88 % 1021,8 hPa 0,0 l/m 0 min 0 min 0 W/m 0,0 km/h (0 Bft) 100,00 %
29.08.2022 05:36 12,6 C 11,7 C 8,9 C 88 % 1021,8 hPa 0,0 l/m 0 min 0 min 0 W/m 0,0 km/h (0 Bft) 96,55 %
29.08.2022 05:38 12,6 C 11,1 C 8,3 C 88 % 1021,8 hPa 0,0 l/m 0 min 0 min 0 W/m 0,0 km/h (0 Bft) 100,00 %
29.08.2022 05:40 12,6 C 11,1 C 8,3 C 88 % 1021,8 hPa 0,0 l/m 0 min 0 min 0 W/m 0,0 km/h (0 Bft) 100,00 %
29.08.2022 05:42 12,6 C 11,1 C 8,3 C 88 % 1021,8 hPa 0,0 l/m 0 min 0 min 0 W/m 0,0 km/h (0 Bft) 97,87 %
29.08.2022 05:44 12,6 C 11,1 C 8,3 C 88 % 1021,8 hPa 0,0 l/m 0 min 0 min 0 W/m 0,0 km/h (0 Bft) 100,00 %
29.08.2022 05:46 12,5 C 11,7 C 8,3 C 88 % 1021,7 hPa 0,0 l/m 0 min 0 min 0 W/m 0,0 km/h (0 Bft) 97,87 %
29.08.2022 05:48 12,5 C 11,7 C 8,3 C 88 % 1021,7 hPa 0,0 l/m 0 min 0 min 0 W/m 0,0 km/h (0 Bft) 97,83 %
29.08.2022 05:50 12,5 C 11,1 C 8,3 C 88 % 1021,7 hPa 0,0 l/m 0 min 0 min 0 W/m 0,0 km/h (0 Bft) 100,00 %
29.08.2022 05:52 12,5 C 11,1 C 8,3 C 88 % 1021,7 hPa 0,0 l/m 0 min 0 min 0 W/m 0,0 km/h (0 Bft) 97,87 %
29.08.2022 05:54 12,4 C 11,1 C 8,3 C 88 % 1021,6 hPa 0,0 l/m 0 min 0 min 0 W/m 0,0 km/h (0 Bft) 93,62 %
29.08.2022 05:56 12,4 C 11,1 C 8,3 C 88 % 1021,6 hPa 0,0 l/m 0 min 0 min 0 W/m 0,0 km/h (0 Bft) 97,87 %
29.08.2022 05:58 12,4 C 11,1 C 8,3 C 88 % 1021,6 hPa 0,0 l/m 0 min 0 min 0 W/m 0,0 km/h (0 Bft) 97,87 %
29.08.2022 06:00 12,4 C 11,1 C 8,3 C 88 % 1021,6 hPa 0,0 l/m 0 min 0 min 0 W/m 0,0 km/h (0 Bft) 95,74 %
29.08.2022 06:02 12,4 C 11,1 C 8,3 C 88 % 1021,6 hPa 0,0 l/m 0 min 0 min 0 W/m 0,0 km/h (0 Bft) 97,83 %
29.08.2022 06:04 12,4 C 11,1 C 8,3 C 88 % 1021,6 hPa 0,0 l/m 0 min 0 min 0 W/m 0,0 km/h (0 Bft) 95,74 %
29.08.2022 06:08 12,4 C 11,1 C 8,3 C 89 % 1021,6 hPa 0,0 l/m 0 min 0 min 0 W/m 0,0 km/h (0 Bft) 97,92 %
29.08.2022 06:10 12,3 C 11,1 C 8,3 C 89 % 1021,6 hPa 0,0 l/m 0 min 0 min 0 W/m 0,0 km/h (0 Bft) 97,87 %
29.08.2022 06:12 12,3 C 11,1 C 8,3 C 89 % 1021,7 hPa 0,0 l/m 0 min 0 min 0 W/m 0,0 km/h (0 Bft) 97,83 %
29.08.2022 06:14 12,3 C 11,7 C 8,3 C 89 % 1021,7 hPa 0,0 l/m 0 min 0 min 0 W/m 0,0 km/h (0 Bft) 95,74 %
29.08.2022 06:16 12,3 C 11,7 C 8,3 C 89 % 1021,7 hPa 0,0 l/m 0 min 0 min 0 W/m 0,0 km/h (0 Bft) 93,62 %
29.08.2022 06:18 12,3 C 11,7 C 8,9 C 89 % 1021,7 hPa 0,0 l/m 0 min 0 min 0 W/m 0,0 km/h (0 Bft) 97,87 %
29.08.2022 06:20 12,3 C 11,7 C 8,9 C 89 % 1021,7 hPa 0,0 l/m 0 min 0 min 0 W/m 0,0 km/h (0 Bft) 97,87 %
29.08.2022 06:22 12,3 C 11,1 C 8,3 C 89 % 1021,7 hPa 0,0 l/m 0 min 0 min 0 W/m 0,0 km/h (0 Bft) 95,74 %
29.08.2022 06:24 12,3 C 11,1 C 8,3 C 89 % 1021,7 hPa 0,0 l/m 0 min 0 min 0 W/m 0,0 km/h (0 Bft) 97,83 %
29.08.2022 06:26 12,2 C 11,1 C 8,3 C 89 % 1021,7 hPa 0,0 l/m 0 min 0 min 0 W/m 0,0 km/h (0 Bft) 97,87 %
29.08.2022 06:28 12,2 C 11,1 C 8,3 C 89 % 1021,6 hPa 0,0 l/m 0 min 0 min 0 W/m 0,0 km/h (0 Bft) 93,62 %
29.08.2022 06:30 12,2 C 11,1 C 8,3 C 89 % 1021,6 hPa 0,0 l/m 0 min 0 min 0 W/m 0,0 km/h (0 Bft) 97,87 %
29.08.2022 06:32 12,2 C 11,1 C 8,3 C 89 % 1021,6 hPa 0,0 l/m 0 min 0 min 0 W/m 0,0 km/h (0 Bft) 97,92 %
29.08.2022 06:34 12,2 C 11,1 C 8,3 C 89 % 1021,6 hPa 0,0 l/m 0 min 0 min 0 W/m 0,0 km/h (0 Bft) 97,83 %
29.08.2022 06:36 12,2 C 11,1 C 8,3 C 89 % 1021,7 hPa 0,0 l/m 0 min 0 min 0 W/m 0,0 km/h (0 Bft) 97,87 %
29.08.2022 06:38 12,2 C 11,1 C 8,3 C 89 % 1021,7 hPa 0,0 l/m 0 min 0 min 0 W/m 0,0 km/h (0 Bft) 97,87 %
29.08.2022 06:40 12,2 C 11,7 C 8,3 C 90 % 1021,7 hPa 0,0 l/m 0 min 0 min 0 W/m 0,0 km/h (0 Bft) 97,87 %
29.08.2022 06:42 12,2 C 11,7 C 8,3 C 90 % 1021,8 hPa 0,0 l/m 0 min 0 min 0 W/m 0,0 km/h (0 Bft) 97,87 %
29.08.2022 06:44 12,2 C 11,7 C 8,3 C 90 % 1021,8 hPa 0,0 l/m 0 min 0 min 0 W/m 0,0 km/h (0 Bft) 95,74 %
29.08.2022 06:46 12,2 C 11,7 C 8,9 C 90 % 1021,8 hPa 0,0 l/m 0 min 0 min 0 W/m 0,0 km/h (0 Bft) 97,87 %
29.08.2022 06:48 12,2 C 11,7 C 8,9 C 90 % 1021,9 hPa 0,0 l/m 0 min 0 min 4 W/m 0,0 km/h (0 Bft) 97,83 %
29.08.2022 06:50 12,2 C 11,7 C 8,9 C 90 % 1021,9 hPa 0,0 l/m 0 min 0 min 5 W/m 0,0 km/h (0 Bft) 100,00 %
29.08.2022 06:52 12,2 C 11,7 C 8,9 C 90 % 1021,9 hPa 0,0 l/m 0 min 0 min 5 W/m 0,0 km/h (0 Bft) 100,00 %
29.08.2022 06:54 12,2 C 11,7 C 8,9 C 90 % 1021,9 hPa 0,0 l/m 0 min 0 min 5 W/m 0,0 km/h (0 Bft) 97,87 %
29.08.2022 06:56 12,2 C 11,7 C 8,9 C 90 % 1021,9 hPa 0,0 l/m 0 min 0 min 6 W/m 0,0 km/h (0 Bft) 100,00 %
29.08.2022 06:58 12,2 C 11,7 C 8,9 C 90 % 1021,9 hPa 0,0 l/m 0 min 0 min 7 W/m 0,0 km/h (0 Bft) 100,00 %
29.08.2022 07:00 12,2 C 11,7 C 8,9 C 90 % 1021,9 hPa 0,0 l/m 0 min 0 min 9 W/m 0,0 km/h (0 Bft) 100,00 %
29.08.2022 07:02 12,2 C 11,7 C 8,9 C 90 % 1022,0 hPa 0,0 l/m 0 min 0 min 10 W/m 0,0 km/h (0 Bft) 100,00 %
29.08.2022 07:04 12,2 C 11,7 C 8,9 C 90 % 1021,9 hPa 0,0 l/m 0 min 0 min 11 W/m 0,0 km/h (0 Bft) 100,00 %
29.08.2022 07:06 12,2 C 11,7 C 8,9 C 91 % 1021,8 hPa 0,0 l/m 0 min 0 min 12 W/m 0,0 km/h (0 Bft) 100,00 %
29.08.2022 07:08 12,2 C 11,7 C 8,9 C 91 % 1021,9 hPa 0,0 l/m 0 min 0 min 12 W/m 0,0 km/h (0 Bft) 97,87 %
29.08.2022 07:10 12,2 C 11,7 C 8,9 C 91 % 1021,9 hPa 0,0 l/m 0 min 0 min 13 W/m 0,0 km/h (0 Bft) 100,00 %
29.08.2022 07:12 12,2 C 11,7 C 8,9 C 91 % 1021,9 hPa 0,0 l/m 0 min 0 min 14 W/m 0,0 km/h (0 Bft) 97,87 %
29.08.2022 07:14 12,2 C 11,7 C 8,9 C 91 % 1021,9 hPa 0,0 l/m 0 min 0 min 16 W/m 0,0 km/h (0 Bft) 100,00 %
29.08.2022 07:16 12,3 C 11,7 C 8,9 C 91 % 1021,9 hPa 0,0 l/m 0 min 0 min 18 W/m 0,0 km/h (0 Bft) 100,00 %
29.08.2022 07:18 12,3 C 11,7 C 8,9 C 91 % 1021,9 hPa 0,0 l/m 0 min 0 min 19 W/m 0,0 km/h (0 Bft) 100,00 %
29.08.2022 07:20 12,3 C 11,7 C 8,9 C 91 % 1021,9 hPa 0,0 l/m 0 min 0 min 21 W/m 0,0 km/h (0 Bft) 100,00 %
29.08.2022 07:22 12,3 C 11,7 C 8,9 C 91 % 1021,9 hPa 0,0 l/m 0 min 0 min 24 W/m 0,0 km/h (0 Bft) 100,00 %
29.08.2022 07:24 12,3 C 11,7 C 8,9 C 91 % 1021,9 hPa 0,0 l/m 0 min 0 min 25 W/m 0,0 km/h (0 Bft) 97,87 %
29.08.2022 07:26 12,3 C 11,7 C 8,9 C 91 % 1021,9 hPa 0,0 l/m 0 min 0 min 27 W/m 0,0 km/h (0 Bft) 97,87 %
29.08.2022 07:28 12,3 C 12,2 C 8,9 C 91 % 1021,9 hPa 0,0 l/m 0 min 0 min 29 W/m 0,0 km/h (0 Bft) 97,87 %
29.08.2022 07:30 12,3 C 12,2 C 8,9 C 91 % 1021,9 hPa 0,0 l/m 0 min 0 min 32 W/m 0,0 km/h (0 Bft) 97,87 %
29.08.2022 07:32 12,4 C 12,2 C 8,9 C 91 % 1021,9 hPa 0,0 l/m 0 min 0 min 33 W/m 0,0 km/h (0 Bft) 97,87 %
29.08.2022 07:34 12,4 C 12,2 C 8,9 C 91 % 1022,0 hPa 0,0 l/m 0 min 0 min 36 W/m 0,0 km/h (0 Bft) 97,87 %
29.08.2022 07:36 12,4 C 12,2 C 8,9 C 92 % 1022,0 hPa 0,0 l/m 0 min 0 min 38 W/m 0,0 km/h (0 Bft) 97,87 %
29.08.2022 07:38 12,5 C 12,2 C 8,9 C 92 % 1022,1 hPa 0,0 l/m 0 min 0 min 40 W/m 0,0 km/h (0 Bft) 100,00 %
29.08.2022 07:40 12,6 C 12,2 C 8,9 C 92 % 1022,0 hPa 0,0 l/m 0 min 0 min 43 W/m 0,0 km/h (0 Bft) 97,87 %
29.08.2022 07:42 12,6 C 12,2 C 9,4 C 92 % 1022,0 hPa 0,0 l/m 0 min 0 min 48 W/m 0,0 km/h (0 Bft) 97,87 %
29.08.2022 07:44 12,6 C 12,2 C 9,4 C 92 % 1022,0 hPa 0,0 l/m 0 min 0 min 52 W/m 0,0 km/h (0 Bft) 97,83 %
29.08.2022 07:46 12,6 C 12,8 C 9,4 C 92 % 1022,1 hPa 0,0 l/m 0 min 0 min 55 W/m 0,0 km/h (0 Bft) 97,87 %
29.08.2022 07:48 12,7 C 12,8 C 9,4 C 92 % 1022,1 hPa 0,0 l/m 0 min 0 min 60 W/m 0,0 km/h (0 Bft) 97,87 %
29.08.2022 07:50 12,7 C 12,8 C 9,4 C 92 % 1022,2 hPa 0,0 l/m 0 min 0 min 63 W/m 0,0 km/h (0 Bft) 97,87 %
29.08.2022 07:52 12,7 C 12,8 C 9,4 C 92 % 1022,2 hPa 0,0 l/m 0 min 0 min 65 W/m 0,0 km/h (0 Bft) 95,74 %
29.08.2022 07:54 12,8 C 12,8 C 10,0 C 92 % 1022,2 hPa 0,0 l/m 0 min 0 min 68 W/m 0,0 km/h (0 Bft) 100,00 %
29.08.2022 07:56 12,8 C 13,3 C 10,0 C 92 % 1022,2 hPa 0,0 l/m 0 min 0 min 69 W/m 0,0 km/h (0 Bft) 100,00 %
29.08.2022 07:58 12,9 C 13,3 C 10,0 C 92 % 1022,3 hPa 0,0 l/m 0 min 0 min 71 W/m 0,0 km/h (0 Bft) 100,00 %
29.08.2022 08:00 12,9 C 13,3 C 10,0 C 92 % 1022,3 hPa 0,0 l/m 0 min 0 min 72 W/m 0,0 km/h (0 Bft) 100,00 %
29.08.2022 08:02 12,9 C 13,3 C 10,0 C 92 % 1022,3 hPa 0,0 l/m 0 min 0 min 72 W/m 0,0 km/h (0 Bft) 100,00 %
29.08.2022 08:04 13,0 C 13,3 C 10,0 C 92 % 1022,4 hPa 0,0 l/m 0 min 0 min 74 W/m 0,0 km/h (0 Bft) 97,87 %
29.08.2022 08:06 13,0 C 13,3 C 10,0 C 92 % 1022,3 hPa 0,0 l/m 0 min 0 min 74 W/m 0,0 km/h (0 Bft) 97,87 %
29.08.2022 08:08 13,1 C 13,9 C 10,0 C 92 % 1022,3 hPa 0,0 l/m 0 min 0 min 76 W/m 0,0 km/h (0 Bft) 97,83 %
29.08.2022 08:10 13,1 C 13,9 C 10,6 C 92 % 1022,3 hPa 0,0 l/m 0 min 0 min 75 W/m 0,0 km/h (0 Bft) 97,87 %
29.08.2022 08:12 13,1 C 13,9 C 10,6 C 92 % 1022,4 hPa 0,0 l/m 0 min 0 min 71 W/m 0,0 km/h (0 Bft) 93,62 %
29.08.2022 08:14 13,2 C 13,9 C 10,6 C 92 % 1022,4 hPa 0,0 l/m 0 min 0 min 70 W/m 0,0 km/h (0 Bft) 97,87 %
29.08.2022 08:16 13,2 C 13,9 C 10,6 C 92 % 1022,4 hPa 0,0 l/m 0 min 0 min 70 W/m 0,0 km/h (0 Bft) 97,87 %
29.08.2022 08:18 13,3 C 13,9 C 10,6 C 92 % 1022,4 hPa 0,0 l/m 0 min 0 min 72 W/m 0,0 km/h (0 Bft) 97,83 %
29.08.2022 08:20 13,4 C 13,9 C 10,6 C 92 % 1022,4 hPa 0,0 l/m 0 min 0 min 73 W/m 0,0 km/h (0 Bft) 97,87 %
29.08.2022 08:22 13,4 C 13,9 C 10,6 C 92 % 1022,5 hPa 0,0 l/m 0 min 0 min 76 W/m 0,0 km/h (0 Bft) 91,49 %
29.08.2022 08:24 13,4 C 13,9 C 10,6 C 92 % 1022,5 hPa 0,0 l/m 0 min 0 min 78 W/m 0,0 km/h (0 Bft) 95,74 %
29.08.2022 08:26 13,5 C 14,4 C 10,6 C 91 % 1022,5 hPa 0,0 l/m 0 min 0 min 81 W/m 0,0 km/h (0 Bft) 95,74 %
29.08.2022 08:28 13,6 C 14,4 C 10,6 C 91 % 1022,5 hPa 0,0 l/m 0 min 0 min 83 W/m 0,0 km/h (0 Bft) 95,74 %
29.08.2022 08:30 13,7 C 14,4 C 10,6 C 91 % 1022,5 hPa 0,0 l/m 0 min 0 min 87 W/m 0,0 km/h (0 Bft) 93,48 %
29.08.2022 08:32 13,7 C 14,4 C 10,6 C 91 % 1022,6 hPa 0,0 l/m 0 min 0 min 91 W/m 0,0 km/h (0 Bft) 93,62 %
29.08.2022 08:34 13,8 C 14,4 C 10,6 C 91 % 1022,5 hPa 0,0 l/m 0 min 0 min 93 W/m 0,0 km/h (0 Bft) 93,62 %
29.08.2022 08:36 13,8 C 14,4 C 10,6 C 91 % 1022,6 hPa 0,0 l/m 0 min 0 min 93 W/m 0,0 km/h (0 Bft) 95,74 %
29.08.2022 08:38 13,9 C 14,4 C 10,6 C 90 % 1022,5 hPa 0,0 l/m 0 min 0 min 97 W/m 0,0 km/h (0 Bft) 95,74 %
29.08.2022 08:40 14,0 C 14,4 C 10,6 C 90 % 1022,6 hPa 0,0 l/m 0 min 0 min 96 W/m 0,0 km/h (0 Bft) 93,62 %
29.08.2022 08:42 14,1 C 14,4 C 11,1 C 90 % 1022,6 hPa 0,0 l/m 0 min 0 min 96 W/m 0,0 km/h (0 Bft) 95,74 %
29.08.2022 08:44 14,1 C 14,4 C 11,1 C 89 % 1022,6 hPa 0,0 l/m 0 min 0 min 100 W/m 0,0 km/h (0 Bft) 95,65 %
29.08.2022 08:46 14,2 C 14,4 C 10,6 C 89 % 1022,6 hPa 0,0 l/m 0 min 0 min 102 W/m 0,0 km/h (0 Bft) 95,74 %
29.08.2022 08:48 14,3 C 14,4 C 10,6 C 89 % 1022,6 hPa 0,0 l/m 0 min 0 min 102 W/m 0,0 km/h (0 Bft) 95,74 %
29.08.2022 08:50 14,3 C 14,4 C 11,1 C 88 % 1022,6 hPa 0,0 l/m 0 min 0 min 105 W/m 0,0 km/h (0 Bft) 95,74 %
29.08.2022 08:52 14,3 C 14,4 C 11,1 C 88 % 1022,6 hPa 0,0 l/m 0 min 0 min 131 W/m 0,0 km/h (0 Bft) 95,74 %
29.08.2022 08:54 14,3 C 15,0 C 11,1 C 88 % 1022,5 hPa 0,0 l/m 2 min 0 min 209 W/m 0,0 km/h (0 Bft) 95,74 %
29.08.2022 08:56 14,4 C 15,0 C 11,1 C 88 % 1022,5 hPa 0,0 l/m 2 min 0 min 246 W/m 0,0 km/h (0 Bft) 97,83 %
29.08.2022 08:58 14,4 C 15,0 C 11,1 C 87 % 1022,6 hPa 0,0 l/m 2 min 0 min 268 W/m 0,0 km/h (0 Bft) 97,87 %
29.08.2022 09:00 14,5 C 15,0 C 11,1 C 87 % 1022,6 hPa 0,0 l/m 2 min 0 min 227 W/m 0,0 km/h (0 Bft) 97,87 %
29.08.2022 09:02 14,6 C 15,0 C 11,1 C 87 % 1022,6 hPa 0,0 l/m 2 min 0 min 243 W/m 0,0 km/h (0 Bft) 95,74 %
29.08.2022 09:04 14,6 C 15,0 C 11,1 C 87 % 1022,7 hPa 0,0 l/m 2 min 0 min 280 W/m 0,0 km/h (0 Bft) 97,87 %
29.08.2022 09:06 14,7 C 15,6 C 11,1 C 87 % 1022,7 hPa 0,0 l/m 2 min 0 min 244 W/m 0,0 km/h (0 Bft) 95,65 %
29.08.2022 09:08 14,8 C 16,7 C 11,1 C 87 % 1022,7 hPa 0,0 l/m 2 min 0 min 265 W/m 0,0 km/h (0 Bft) 97,87 %
29.08.2022 09:10 14,8 C 17,8 C 11,7 C 86 % 1022,7 hPa 0,0 l/m 2 min 0 min 263 W/m 0,0 km/h (0 Bft) 100,00 %
29.08.2022 09:12 14,9 C 18,9 C 11,7 C 86 % 1022,7 hPa 0,0 l/m 2 min 0 min 357 W/m 0,0 km/h (0 Bft) 97,87 %
29.08.2022 09:14 15,1 C 19,4 C 11,7 C 85 % 1022,6 hPa 0,0 l/m 2 min 0 min 338 W/m 0,0 km/h (0 Bft) 97,87 %
29.08.2022 09:16 15,2 C 18,9 C 11,7 C 85 % 1022,7 hPa 0,0 l/m 2 min 0 min 286 W/m 0,0 km/h (0 Bft) 97,87 %
29.08.2022 09:18 15,3 C 18,3 C 11,7 C 85 % 1022,6 hPa 0,0 l/m 2 min 0 min 273 W/m 0,0 km/h (0 Bft) 97,83 %
29.08.2022 09:20 15,4 C 17,8 C 11,7 C 84 % 1022,7 hPa 0,0 l/m 2 min 0 min 274 W/m 0,0 km/h (0 Bft) 97,87 %
29.08.2022 09:22 15,5 C 17,8 C 11,7 C 84 % 1022,6 hPa 0,0 l/m 2 min 0 min 326 W/m 0,0 km/h (0 Bft) 97,87 %
29.08.2022 09:24 15,6 C 17,8 C 11,7 C 83 % 1022,6 hPa 0,0 l/m 2 min 0 min 272 W/m 0,0 km/h (0 Bft) 97,87 %
29.08.2022 09:26 15,7 C 17,8 C 12,2 C 83 % 1022,6 hPa 0,0 l/m 2 min 0 min 277 W/m 6,4 km/h (2 Bft) 97,87 %
29.08.2022 09:28 15,8 C 17,8 C 12,2 C 82 % 1022,6 hPa 0,0 l/m 2 min 0 min 256 W/m 3,2 km/h (1 Bft) 97,87 %
29.08.2022 09:30 15,9 C 17,2 C 12,2 C 82 % 1022,6 hPa 0,0 l/m 2 min 0 min 316 W/m 9,7 km/h (2 Bft) 95,74 %
29.08.2022 09:32 16,0 C 17,2 C 12,2 C 82 % 1022,6 hPa 0,0 l/m 2 min 0 min 225 W/m 3,2 km/h (1 Bft) 97,83 %
29.08.2022 09:34 16,1 C 16,7 C 12,2 C 81 % 1022,6 hPa 0,0 l/m 2 min 0 min 240 W/m 0,0 km/h (0 Bft) 97,87 %
29.08.2022 09:36 16,2 C 16,7 C 12,2 C 81 % 1022,6 hPa 0,0 l/m 0 min 0 min 176 W/m 0,0 km/h (0 Bft) 97,87 %
29.08.2022 09:38 16,2 C 16,7 C 12,2 C 81 % 1022,6 hPa 0,0 l/m 0 min 0 min 148 W/m 0,0 km/h (0 Bft) 97,87 %
29.08.2022 09:40 16,3 C 16,7 C 12,2 C 81 % 1022,6 hPa 0,0 l/m 0 min 0 min 181 W/m 0,0 km/h (0 Bft) 97,87 %
29.08.2022 09:42 16,3 C 17,2 C 12,8 C 80 % 1022,6 hPa 0,0 l/m 0 min 0 min 184 W/m 0,0 km/h (0 Bft) 97,83 %
29.08.2022 09:44 16,4 C 17,2 C 12,8 C 80 % 1022,6 hPa 0,0 l/m 0 min 0 min 191 W/m 0,0 km/h (0 Bft) 97,87 %
29.08.2022 09:46 16,6 C 17,2 C 12,8 C 80 % 1022,6 hPa 0,0 l/m 0 min 0 min 199 W/m 0,0 km/h (0 Bft) 97,87 %
29.08.2022 09:48 16,6 C 17,2 C 12,8 C 79 % 1022,6 hPa 0,0 l/m 0 min 0 min 208 W/m 3,2 km/h (1 Bft) 100,00 %
29.08.2022 09:50 16,7 C 17,8 C 13,3 C 79 % 1022,6 hPa 0,0 l/m 0 min 0 min 211 W/m 6,4 km/h (2 Bft) 100,00 %
29.08.2022 09:52 16,7 C 17,2 C 13,3 C 78 % 1022,6 hPa 0,0 l/m 0 min 0 min 214 W/m 3,2 km/h (1 Bft) 100,00 %
29.08.2022 09:54 16,8 C 17,8 C 13,3 C 79 % 1022,6 hPa 0,0 l/m 0 min 0 min 202 W/m 6,4 km/h (2 Bft) 100,00 %
29.08.2022 09:56 16,9 C 17,8 C 13,3 C 78 % 1022,6 hPa 0,0 l/m 0 min 0 min 197 W/m 6,4 km/h (2 Bft) 100,00 %
29.08.2022 09:58 17,0 C 17,8 C 13,3 C 78 % 1022,6 hPa 0,0 l/m 0 min 0 min 194 W/m 3,2 km/h (1 Bft) 100,00 %
29.08.2022 10:00 17,0 C 17,8 C 13,3 C 78 % 1022,7 hPa 0,0 l/m 0 min 0 min 192 W/m 3,2 km/h (1 Bft) 100,00 %
29.08.2022 10:02 17,1 C 17,8 C 13,3 C 77 % 1022,7 hPa 0,0 l/m 0 min 0 min 189 W/m 6,4 km/h (2 Bft) 100,00 %
29.08.2022 10:04 17,1 C 17,2 C 13,3 C 77 % 1022,7 hPa 0,0 l/m 0 min 0 min 190 W/m 3,2 km/h (1 Bft) 100,00 %
29.08.2022 10:06 17,1 C 17,2 C 13,3 C 77 % 1022,7 hPa 0,0 l/m 0 min 0 min 192 W/m 6,4 km/h (2 Bft) 97,83 %
29.08.2022 10:08 17,1 C 17,2 C 13,3 C 77 % 1022,7 hPa 0,0 l/m 0 min 0 min 193 W/m 9,7 km/h (2 Bft) 100,00 %
29.08.2022 10:10 17,1 C 17,8 C 13,3 C 76 % 1022,7 hPa 0,0 l/m 0 min 0 min 192 W/m 6,4 km/h (2 Bft) 100,00 %
29.08.2022 10:12 17,1 C 17,8 C 13,3 C 76 % 1022,7 hPa 0,0 l/m 0 min 0 min 194 W/m 6,4 km/h (2 Bft) 97,87 %
29.08.2022 10:14 17,2 C 17,2 C 13,3 C 76 % 1022,7 hPa 0,0 l/m 0 min 0 min 200 W/m 6,4 km/h (2 Bft) 100,00 %
29.08.2022 10:16 17,2 C 17,2 C 13,3 C 77 % 1022,7 hPa 0,0 l/m 0 min 0 min 210 W/m 6,4 km/h (2 Bft) 100,00 %
29.08.2022 10:18 17,2 C 17,8 C 13,3 C 76 % 1022,7 hPa 0,0 l/m 0 min 0 min 218 W/m 6,4 km/h (2 Bft) 100,00 %
29.08.2022 10:20 17,2 C 17,8 C 13,3 C 76 % 1022,7 hPa 0,0 l/m 0 min 0 min 217 W/m 3,2 km/h (1 Bft) 100,00 %
29.08.2022 10:22 17,2 C 17,8 C 13,3 C 76 % 1022,7 hPa 0,0 l/m 0 min 0 min 227 W/m 6,4 km/h (2 Bft) 100,00 %
29.08.2022 10:24 17,3 C 18,3 C 13,3 C 76 % 1022,8 hPa 0,0 l/m 0 min 0 min 237 W/m 6,4 km/h (2 Bft) 100,00 %
29.08.2022 10:26 17,3 C 18,3 C 13,9 C 76 % 1022,7 hPa 0,0 l/m 0 min 0 min 234 W/m 3,2 km/h (1 Bft) 100,00 %
29.08.2022 10:28 17,4 C 18,3 C 13,9 C 76 % 1022,7 hPa 0,0 l/m 2 min 0 min 279 W/m 3,2 km/h (1 Bft) 100,00 %
29.08.2022 10:30 17,4 C 18,3 C 13,9 C 75 % 1022,7 hPa 0,0 l/m 2 min 0 min 399 W/m 6,4 km/h (2 Bft) 100,00 %
29.08.2022 10:32 17,5 C 18,9 C 13,9 C 75 % 1022,7 hPa 0,0 l/m 2 min 0 min 451 W/m 12,9 km/h (3 Bft) 100,00 %
29.08.2022 10:34 17,5 C 18,9 C 14,4 C 75 % 1022,7 hPa 0,0 l/m 2 min 0 min 478 W/m 12,9 km/h (3 Bft) 100,00 %
29.08.2022 10:36 17,6 C 19,4 C 14,4 C 75 % 1022,7 hPa 0,0 l/m 2 min 0 min 590 W/m 6,4 km/h (2 Bft) 100,00 %
29.08.2022 10:38 17,7 C 19,4 C 15,0 C 74 % 1022,7 hPa 0,0 l/m 2 min 0 min 645 W/m 3,2 km/h (1 Bft) 100,00 %
29.08.2022 10:40 17,8 C 20,0 C 15,0 C 74 % 1022,8 hPa 0,0 l/m 2 min 0 min 529 W/m 9,7 km/h (2 Bft) 100,00 %
29.08.2022 10:42 18,0 C 20,0 C 15,0 C 74 % 1022,7 hPa 0,0 l/m 2 min 0 min 389 W/m 6,4 km/h (2 Bft) 97,83 %
29.08.2022 10:44 18,1 C 20,0 C 15,0 C 74 % 1022,7 hPa 0,0 l/m 2 min 0 min 340 W/m 12,9 km/h (3 Bft) 97,87 %
29.08.2022 10:46 18,2 C 19,4 C 15,0 C 73 % 1022,7 hPa 0,0 l/m 2 min 0 min 326 W/m 16,1 km/h (3 Bft) 97,87 %
29.08.2022 10:48 18,3 C 18,9 C 15,0 C 72 % 1022,7 hPa 0,0 l/m 0 min 0 min 262 W/m 9,7 km/h (2 Bft) 97,87 %
29.08.2022 10:50 18,3 C 19,4 C 15,0 C 72 % 1022,7 hPa 0,0 l/m 0 min 0 min 249 W/m 9,7 km/h (2 Bft) 97,87 %
29.08.2022 10:52 18,4 C 18,9 C 15,0 C 71 % 1022,7 hPa 0,0 l/m 0 min 0 min 263 W/m 6,4 km/h (2 Bft) 97,87 %
29.08.2022 10:54 18,4 C 18,9 C 14,4 C 71 % 1022,7 hPa 0,0 l/m 0 min 0 min 248 W/m 12,9 km/h (3 Bft) 95,65 %
29.08.2022 10:56 18,4 C 18,9 C 14,4 C 71 % 1022,7 hPa 0,0 l/m 0 min 0 min 201 W/m 16,1 km/h (3 Bft) 97,87 %
29.08.2022 10:58 18,3 C 18,3 C 14,4 C 70 % 1022,7 hPa 0,0 l/m 0 min 0 min 187 W/m 12,9 km/h (3 Bft) 95,74 %
29.08.2022 11:00 18,3 C 18,3 C 14,4 C 71 % 1022,7 hPa 0,0 l/m 0 min 0 min 198 W/m 19,3 km/h (3 Bft) 97,87 %
29.08.2022 11:02 18,2 C 18,3 C 14,4 C 71 % 1022,7 hPa 0,0 l/m 0 min 0 min 216 W/m 12,9 km/h (3 Bft) 93,62 %
29.08.2022 11:04 18,2 C 18,3 C 14,4 C 71 % 1022,6 hPa 0,0 l/m 0 min 0 min 221 W/m 9,7 km/h (2 Bft) 95,74 %
29.08.2022 11:06 18,2 C 18,3 C 14,4 C 72 % 1022,7 hPa 0,0 l/m 0 min 0 min 262 W/m 9,7 km/h (2 Bft) 97,83 %
29.08.2022 11:08 18,3 C 18,9 C 14,4 C 72 % 1022,7 hPa 0,0 l/m 2 min 0 min 490 W/m 12,9 km/h (3 Bft) 97,87 %
29.08.2022 11:10 18,3 C 18,9 C 14,4 C 72 % 1022,7 hPa 0,0 l/m 2 min 0 min 633 W/m 6,4 km/h (2 Bft) 97,87 %
29.08.2022 11:12 18,4 C 18,9 C 14,4 C 72 % 1022,7 hPa 0,0 l/m 2 min 0 min 467 W/m 9,7 km/h (2 Bft) 97,87 %
29.08.2022 11:14 18,4 C 19,4 C 15,0 C 72 % 1022,7 hPa 0,0 l/m 0 min 0 min 288 W/m 12,9 km/h (3 Bft) 95,74 %
29.08.2022 11:16 18,5 C 19,4 C 15,0 C 71 % 1022,7 hPa 0,0 l/m 2 min 0 min 628 W/m 6,4 km/h (2 Bft) 93,62 %
29.08.2022 11:18 18,5 C 19,4 C 15,0 C 71 % 1022,7 hPa 0,0 l/m 2 min 0 min 406 W/m 12,9 km/h (3 Bft) 97,83 %
29.08.2022 11:20 18,6 C 20,0 C 15,0 C 70 % 1022,8 hPa 0,0 l/m 2 min 0 min 678 W/m 6,4 km/h (2 Bft) 97,87 %
29.08.2022 11:22 18,7 C 20,0 C 15,0 C 70 % 1022,8 hPa 0,0 l/m 2 min 0 min 708 W/m 6,4 km/h (2 Bft) 95,74 %
29.08.2022 11:24 18,8 C 20,6 C 15,0 C 70 % 1022,8 hPa 0,0 l/m 2 min 0 min 720 W/m 6,4 km/h (2 Bft) 97,87 %
29.08.2022 11:26 18,8 C 20,0 C 15,0 C 70 % 1022,8 hPa 0,0 l/m 2 min 0 min 455 W/m 6,4 km/h (2 Bft) 95,74 %
29.08.2022 11:28 18,9 C 20,0 C 15,0 C 69 % 1022,8 hPa 0,0 l/m 0 min 0 min 279 W/m 9,7 km/h (2 Bft) 95,74 %
29.08.2022 11:30 18,9 C 20,0 C 15,0 C 69 % 1022,8 hPa 0,0 l/m 2 min 0 min 677 W/m 9,7 km/h (2 Bft) 97,83 %
29.08.2022 11:32 18,9 C 21,1 C 15,0 C 69 % 1022,9 hPa 0,0 l/m 2 min 0 min 722 W/m 6,4 km/h (2 Bft) 97,87 %
29.08.2022 11:34 19,0 C 21,1 C 15,0 C 69 % 1022,8 hPa 0,0 l/m 2 min 0 min 666 W/m 9,7 km/h (2 Bft) 95,74 %
29.08.2022 11:36 19,1 C 21,1 C 15,6 C 69 % 1022,8 hPa 0,0 l/m 2 min 0 min 625 W/m 9,7 km/h (2 Bft) 95,74 %
29.08.2022 11:38 19,1 C 20,6 C 15,6 C 68 % 1022,8 hPa 0,0 l/m 2 min 0 min 712 W/m 9,7 km/h (2 Bft) 97,87 %
29.08.2022 11:40 19,2 C 20,6 C 15,6 C 68 % 1022,8 hPa 0,0 l/m 2 min 0 min 811 W/m 6,4 km/h (2 Bft) 97,87 %
29.08.2022 11:42 19,3 C 20,6 C 16,7 C 69 % 1022,8 hPa 0,0 l/m 2 min 0 min 826 W/m 6,4 km/h (2 Bft) 95,65 %
29.08.2022 11:44 19,4 C 21,1 C 16,7 C 68 % 1022,7 hPa 0,0 l/m 2 min 0 min 846 W/m 9,7 km/h (2 Bft) 97,87 %
29.08.2022 11:46 19,4 C 21,7 C 17,2 C 68 % 1022,7 hPa 0,0 l/m 2 min 0 min 846 W/m 9,7 km/h (2 Bft) 93,62 %
29.08.2022 11:48 19,5 C 21,7 C 16,7 C 67 % 1022,7 hPa 0,0 l/m 2 min 0 min 683 W/m 6,4 km/h (2 Bft) 95,74 %
29.08.2022 11:50 19,6 C 21,1 C 16,7 C 67 % 1022,7 hPa 0,0 l/m 2 min 0 min 626 W/m 12,9 km/h (3 Bft) 95,74 %
29.08.2022 11:52 19,6 C 21,7 C 16,7 C 67 % 1022,7 hPa 0,0 l/m 2 min 0 min 498 W/m 12,9 km/h (3 Bft) 93,62 %
29.08.2022 11:54 19,6 C 21,1 C 16,1 C 66 % 1022,8 hPa 0,0 l/m 2 min 0 min 429 W/m 12,9 km/h (3 Bft) 95,65 %
29.08.2022 11:56 19,5 C 21,1 C 16,1 C 66 % 1022,8 hPa 0,0 l/m 2 min 0 min 398 W/m 12,9 km/h (3 Bft) 95,74 %
29.08.2022 11:58 19,4 C 22,2 C 16,7 C 67 % 1022,7 hPa 0,0 l/m 2 min 0 min 422 W/m 3,2 km/h (1 Bft) 97,87 %
29.08.2022 12:00 19,4 C 22,8 C 17,2 C 66 % 1022,7 hPa 0,0 l/m 2 min 0 min 505 W/m 6,4 km/h (2 Bft) 97,87 %
29.08.2022 12:02 19,4 C 24,4 C 17,8 C 67 % 1022,6 hPa 0,0 l/m 2 min 0 min 739 W/m 16,1 km/h (3 Bft) 100,00 %
29.08.2022 12:04 19,6 C 25,0 C 18,3 C 67 % 1022,6 hPa 0,0 l/m 2 min 0 min 818 W/m 9,7 km/h (2 Bft) 97,87 %
29.08.2022 12:08 19,7 C 25,0 C 18,9 C 66 % 1022,6 hPa 0,0 l/m 4 min 0 min 666 W/m 12,9 km/h (3 Bft) 97,85 %
29.08.2022 12:10 19,8 C 26,1 C 19,4 C 66 % 1022,7 hPa 0,0 l/m 2 min 0 min 678 W/m 9,7 km/h (2 Bft) 97,87 %
29.08.2022 12:12 19,9 C 26,7 C 19,4 C 66 % 1022,6 hPa 0,0 l/m 2 min 0 min 637 W/m 9,7 km/h (2 Bft) 97,87 %
29.08.2022 12:14 19,9 C 26,7 C 18,9 C 65 % 1022,6 hPa 0,0 l/m 2 min 0 min 595 W/m 9,7 km/h (2 Bft) 97,87 %
29.08.2022 12:16 20,0 C 27,2 C 18,9 C 65 % 1022,6 hPa 0,0 l/m 2 min 0 min 658 W/m 9,7 km/h (2 Bft) 95,74 %
29.08.2022 12:18 20,1 C 27,8 C 18,9 C 65 % 1022,5 hPa 0,0 l/m 2 min 0 min 687 W/m 9,7 km/h (2 Bft) 97,83 %
29.08.2022 12:20 20,2 C 27,8 C 18,3 C 65 % 1022,6 hPa 0,0 l/m 2 min 0 min 731 W/m 9,7 km/h (2 Bft) 97,87 %
29.08.2022 12:22 20,3 C 29,4 C 17,8 C 64 % 1022,6 hPa 0,0 l/m 2 min 0 min 796 W/m 12,9 km/h (3 Bft) 95,74 %
29.08.2022 12:24 20,4 C 30,0 C 17,2 C 64 % 1022,6 hPa 0,0 l/m 2 min 0 min 800 W/m 9,7 km/h (2 Bft) 97,87 %
29.08.2022 12:26 20,5 C 29,4 C 17,2 C 63 % 1022,6 hPa 0,0 l/m 2 min 0 min 795 W/m 9,7 km/h (2 Bft) 97,87 %
29.08.2022 12:28 20,6 C 28,3 C 16,7 C 64 % 1022,6 hPa 0,0 l/m 2 min 0 min 679 W/m 9,7 km/h (2 Bft) 97,87 %
29.08.2022 12:30 20,6 C 26,1 C 16,7 C 64 % 1022,6 hPa 0,0 l/m 0 min 0 min 249 W/m 12,9 km/h (3 Bft) 95,65 %
29.08.2022 12:32 20,4 C 23,3 C 16,1 C 63 % 1022,5 hPa 0,0 l/m 0 min 0 min 203 W/m 6,4 km/h (2 Bft) 97,87 %
29.08.2022 12:34 20,3 C 22,8 C 16,1 C 65 % 1022,5 hPa 0,0 l/m 0 min 0 min 217 W/m 9,7 km/h (2 Bft) 97,87 %
29.08.2022 12:36 20,3 C 22,8 C 16,1 C 65 % 1022,5 hPa 0,0 l/m 0 min 0 min 258 W/m 6,4 km/h (2 Bft) 97,87 %
29.08.2022 12:38 20,3 C 23,3 C 16,1 C 64 % 1022,5 hPa 0,0 l/m 2 min 0 min 413 W/m 6,4 km/h (2 Bft) 95,74 %
29.08.2022 12:40 20,3 C 23,9 C 16,1 C 65 % 1022,5 hPa 0,0 l/m 2 min 0 min 826 W/m 6,4 km/h (2 Bft) 97,87 %
29.08.2022 12:42 20,4 C 23,3 C 16,1 C 64 % 1022,4 hPa 0,0 l/m 2 min 0 min 821 W/m 9,7 km/h (2 Bft) 95,65 %
29.08.2022 12:44 20,5 C 23,3 C 16,7 C 64 % 1022,4 hPa 0,0 l/m 2 min 0 min 697 W/m 9,7 km/h (2 Bft) 97,87 %
29.08.2022 12:46 20,6 C 22,8 C 16,7 C 64 % 1022,4 hPa 0,0 l/m 2 min 0 min 626 W/m 6,4 km/h (2 Bft) 95,74 %
29.08.2022 12:48 20,6 C 22,2 C 16,7 C 62 % 1022,5 hPa 0,0 l/m 2 min 0 min 758 W/m 12,9 km/h (3 Bft) 97,87 %
29.08.2022 12:50 20,6 C 21,7 C 16,7 C 62 % 1022,4 hPa 0,0 l/m 2 min 0 min 707 W/m 6,4 km/h (2 Bft) 97,87 %
29.08.2022 12:52 20,6 C 21,7 C 16,1 C 62 % 1022,4 hPa 0,0 l/m 2 min 0 min 678 W/m 9,7 km/h (2 Bft) 100,00 %
29.08.2022 12:54 20,6 C 21,7 C 16,7 C 62 % 1022,3 hPa 0,0 l/m 2 min 0 min 691 W/m 3,2 km/h (1 Bft) 97,83 %
29.08.2022 12:56 20,6 C 21,1 C 16,7 C 62 % 1022,3 hPa 0,0 l/m 2 min 0 min 657 W/m 3,2 km/h (1 Bft) 97,87 %
29.08.2022 12:58 20,6 C 21,1 C 16,7 C 63 % 1022,2 hPa 0,0 l/m 2 min 0 min 692 W/m 6,4 km/h (2 Bft) 100,00 %
29.08.2022 13:00 20,7 C 21,7 C 16,7 C 63 % 1022,2 hPa 0,0 l/m 2 min 0 min 580 W/m 6,4 km/h (2 Bft) 100,00 %
29.08.2022 13:02 20,8 C 21,7 C 16,7 C 62 % 1022,2 hPa 0,0 l/m 2 min 0 min 477 W/m 6,4 km/h (2 Bft) 100,00 %
29.08.2022 13:04 20,8 C 21,7 C 16,7 C 62 % 1022,2 hPa 0,0 l/m 2 min 0 min 514 W/m 12,9 km/h (3 Bft) 100,00 %
29.08.2022 13:06 20,8 C 21,1 C 16,7 C 61 % 1022,1 hPa 0,0 l/m 0 min 0 min 341 W/m 12,9 km/h (3 Bft) 100,00 %
29.08.2022 13:08 20,8 C 21,1 C 16,7 C 61 % 1022,1 hPa 0,0 l/m 2 min 0 min 455 W/m 12,9 km/h (3 Bft) 100,00 %
29.08.2022 13:10 20,8 C 21,1 C 16,7 C 61 % 1022,1 hPa 0,0 l/m 2 min 0 min 451 W/m 12,9 km/h (3 Bft) 100,00 %
29.08.2022 13:12 20,8 C 21,1 C 16,7 C 61 % 1022,1 hPa 0,0 l/m 0 min 0 min 314 W/m 9,7 km/h (2 Bft) 97,87 %
29.08.2022 13:14 20,9 C 21,1 C 16,7 C 61 % 1022,1 hPa 0,0 l/m 0 min 0 min 231 W/m 6,4 km/h (2 Bft) 97,87 %
29.08.2022 13:16 20,9 C 21,1 C 16,7 C 60 % 1022,1 hPa 0,0 l/m 0 min 0 min 245 W/m 6,4 km/h (2 Bft) 93,62 %
29.08.2022 13:18 20,9 C 21,1 C 16,7 C 61 % 1022,0 hPa 0,0 l/m 2 min 0 min 363 W/m 3,2 km/h (1 Bft) 95,65 %
29.08.2022 13:20 20,9 C 21,7 C 16,7 C 61 % 1022,0 hPa 0,0 l/m 2 min 0 min 635 W/m 9,7 km/h (2 Bft) 97,87 %
29.08.2022 13:22 21,0 C 21,7 C 17,2 C 62 % 1022,0 hPa 0,0 l/m 2 min 0 min 528 W/m 9,7 km/h (2 Bft) 97,87 %
29.08.2022 13:24 21,1 C 21,1 C 17,2 C 61 % 1022,0 hPa 0,0 l/m 0 min 0 min 302 W/m 3,2 km/h (1 Bft) 95,74 %
29.08.2022 13:26 21,1 C 21,1 C 17,2 C 61 % 1021,9 hPa 0,0 l/m 2 min 0 min 391 W/m 6,4 km/h (2 Bft) 93,62 %
29.08.2022 13:28 21,1 C 21,7 C 17,2 C 61 % 1021,9 hPa 0,0 l/m 2 min 0 min 595 W/m 6,4 km/h (2 Bft) 95,65 %
29.08.2022 13:30 21,2 C 21,7 C 17,2 C 60 % 1021,9 hPa 0,0 l/m 2 min 0 min 741 W/m 9,7 km/h (2 Bft) 95,74 %
29.08.2022 13:32 21,2 C 21,7 C 16,7 C 59 % 1021,9 hPa 0,0 l/m 2 min 0 min 824 W/m 12,9 km/h (3 Bft) 93,62 %
29.08.2022 13:34 21,3 C 21,7 C 16,7 C 59 % 1021,9 hPa 0,0 l/m 2 min 0 min 821 W/m 16,1 km/h (3 Bft) 93,62 %
29.08.2022 13:36 21,3 C 21,7 C 16,7 C 59 % 1021,9 hPa 0,0 l/m 2 min 0 min 822 W/m 12,9 km/h (3 Bft) 95,74 %
29.08.2022 13:38 21,3 C 22,2 C 16,7 C 59 % 1021,8 hPa 0,0 l/m 2 min 0 min 826 W/m 9,7 km/h (2 Bft) 95,74 %
29.08.2022 13:40 21,3 C 22,2 C 16,7 C 59 % 1021,8 hPa 0,0 l/m 2 min 0 min 822 W/m 12,9 km/h (3 Bft) 93,48 %
29.08.2022 13:42 21,4 C 22,8 C 17,2 C 59 % 1021,8 hPa 0,0 l/m 2 min 0 min 823 W/m 6,4 km/h (2 Bft) 95,74 %
29.08.2022 13:44 21,4 C 22,8 C 17,2 C 58 % 1021,8 hPa 0,0 l/m 2 min 0 min 824 W/m 12,9 km/h (3 Bft) 95,74 %
29.08.2022 13:46 21,6 C 23,3 C 16,7 C 58 % 1021,8 hPa 0,0 l/m 2 min 0 min 810 W/m 9,7 km/h (2 Bft) 95,12 %
29.08.2022 13:48 21,6 C 24,4 C 17,2 C 58 % 1021,8 hPa 0,0 l/m 2 min 0 min 796 W/m 12,9 km/h (3 Bft) 94,92 %
29.08.2022 13:50 21,7 C 25,6 C 17,2 C 58 % 1021,8 hPa 0,0 l/m 2 min 0 min 757 W/m 6,4 km/h (2 Bft) 97,14 %
29.08.2022 13:52 21,8 C 26,7 C 17,2 C 58 % 1021,7 hPa 0,0 l/m 2 min 0 min 783 W/m 9,7 km/h (2 Bft) 93,62 %
29.08.2022 13:54 21,9 C 27,2 C 17,2 C 58 % 1021,7 hPa 0,0 l/m 2 min 0 min 815 W/m 16,1 km/h (3 Bft) 95,74 %
29.08.2022 13:56 22,0 C 28,3 C 17,2 C 58 % 1021,7 hPa 0,0 l/m 2 min 0 min 812 W/m 9,7 km/h (2 Bft) 97,87 %
29.08.2022 13:58 22,1 C 29,4 C 17,8 C 58 % 1021,7 hPa 0,0 l/m 2 min 0 min 807 W/m 12,9 km/h (3 Bft) 93,48 %
29.08.2022 14:00 22,3 C 29,4 C 17,8 C 57 % 1021,7 hPa 0,0 l/m 2 min 0 min 797 W/m 9,7 km/h (2 Bft) 97,87 %
29.08.2022 14:02 22,3 C 29,4 C 17,8 C 57 % 1021,7 hPa 0,0 l/m 2 min 0 min 764 W/m 12,9 km/h (3 Bft) 97,87 %
29.08.2022 14:04 22,4 C 29,4 C 17,2 C 56 % 1021,7 hPa 0,0 l/m 2 min 0 min 761 W/m 6,4 km/h (2 Bft) 97,87 %
29.08.2022 14:06 22,6 C 30,0 C 17,8 C 57 % 1021,7 hPa 0,0 l/m 2 min 0 min 769 W/m 6,4 km/h (2 Bft) 98,28 %
29.08.2022 14:08 22,6 C 30,0 C 17,8 C 56 % 1021,6 hPa 0,0 l/m 2 min 0 min 765 W/m 6,4 km/h (2 Bft) 97,87 %
29.08.2022 14:10 22,7 C 30,0 C 17,8 C 56 % 1021,5 hPa 0,0 l/m 2 min 0 min 787 W/m 6,4 km/h (2 Bft) 100,00 %
29.08.2022 14:12 22,8 C 30,0 C 17,8 C 56 % 1021,6 hPa 0,0 l/m 2 min 0 min 789 W/m 9,7 km/h (2 Bft) 100,00 %
29.08.2022 14:14 22,9 C 30,6 C 17,8 C 56 % 1021,6 hPa 0,0 l/m 2 min 0 min 788 W/m 9,7 km/h (2 Bft) 100,00 %
29.08.2022 14:16 23,0 C 31,1 C 17,8 C 56 % 1021,6 hPa 0,0 l/m 2 min 0 min 786 W/m 6,4 km/h (2 Bft) 100,00 %
29.08.2022 14:18 23,1 C 30,6 C 17,8 C 55 % 1021,6 hPa 0,0 l/m 2 min 0 min 782 W/m 6,4 km/h (2 Bft) 97,87 %
29.08.2022 14:20 23,1 C 30,6 C 17,8 C 55 % 1021,5 hPa 0,0 l/m 2 min 0 min 777 W/m 12,9 km/h (3 Bft) 100,00 %
29.08.2022 14:22 23,1 C 31,1 C 17,8 C 54 % 1021,5 hPa 0,0 l/m 2 min 0 min 778 W/m 9,7 km/h (2 Bft) 100,00 %
29.08.2022 14:24 23,1 C 30,6 C 17,8 C 54 % 1021,5 hPa 0,0 l/m 2 min 0 min 786 W/m 6,4 km/h (2 Bft) 100,00 %
29.08.2022 14:26 23,1 C 30,6 C 17,8 C 53 % 1021,5 hPa 0,0 l/m 2 min 0 min 770 W/m 12,9 km/h (3 Bft) 97,87 %
29.08.2022 14:28 23,1 C 30,0 C 17,8 C 54 % 1021,5 hPa 0,0 l/m 2 min 0 min 779 W/m 19,3 km/h (3 Bft) 100,00 %
29.08.2022 14:30 23,0 C 28,9 C 17,8 C 53 % 1021,5 hPa 0,0 l/m 2 min 0 min 777 W/m 16,1 km/h (3 Bft) 100,00 %
29.08.2022 14:32 23,0 C 30,0 C 17,8 C 54 % 1021,5 hPa 0,0 l/m 2 min 0 min 750 W/m 6,4 km/h (2 Bft) 100,00 %
29.08.2022 14:34 23,1 C 30,0 C 17,8 C 53 % 1021,5 hPa 0,0 l/m 2 min 0 min 733 W/m 6,4 km/h (2 Bft) 100,00 %
29.08.2022 14:36 23,1 C 30,0 C 17,8 C 54 % 1021,5 hPa 0,0 l/m 2 min 0 min 762 W/m 6,4 km/h (2 Bft) 100,00 %
29.08.2022 14:38 23,1 C 29,4 C 17,8 C 53 % 1021,4 hPa 0,0 l/m 2 min 0 min 772 W/m 12,9 km/h (3 Bft) 100,00 %
29.08.2022 14:40 23,1 C 29,4 C 17,8 C 53 % 1021,4 hPa 0,0 l/m 2 min 0 min 770 W/m 6,4 km/h (2 Bft) 97,87 %
29.08.2022 14:42 23,1 C 29,4 C 17,8 C 53 % 1021,4 hPa 0,0 l/m 2 min 0 min 764 W/m 6,4 km/h (2 Bft) 100,00 %
29.08.2022 14:44 23,1 C 30,0 C 17,8 C 53 % 1021,3 hPa 0,0 l/m 2 min 0 min 754 W/m 6,4 km/h (2 Bft) 100,00 %
29.08.2022 14:46 23,2 C 29,4 C 17,8 C 54 % 1021,4 hPa 0,0 l/m 2 min 0 min 762 W/m 16,1 km/h (3 Bft) 97,83 %
29.08.2022 14:48 23,3 C 28,3 C 17,8 C 53 % 1021,3 hPa 0,0 l/m 2 min 0 min 761 W/m 6,4 km/h (2 Bft) 100,00 %
29.08.2022 14:50 23,4 C 29,4 C 18,3 C 54 % 1021,3 hPa 0,0 l/m 2 min 0 min 761 W/m 9,7 km/h (2 Bft) 100,00 %
29.08.2022 14:52 23,6 C 30,0 C 18,3 C 54 % 1021,3 hPa 0,0 l/m 2 min 0 min 749 W/m 12,9 km/h (3 Bft) 97,87 %
29.08.2022 14:54 23,6 C 30,0 C 18,3 C 53 % 1021,3 hPa 0,0 l/m 2 min 0 min 739 W/m 6,4 km/h (2 Bft) 97,87 %
29.08.2022 14:56 23,7 C 29,4 C 18,3 C 53 % 1021,2 hPa 0,0 l/m 2 min 0 min 752 W/m 6,4 km/h (2 Bft) 100,00 %
29.08.2022 14:58 23,8 C 29,4 C 18,3 C 54 % 1021,2 hPa 0,0 l/m 2 min 0 min 750 W/m 6,4 km/h (2 Bft) 100,00 %
29.08.2022 15:00 23,8 C 29,4 C 18,3 C 53 % 1021,1 hPa 0,0 l/m 2 min 0 min 745 W/m 6,4 km/h (2 Bft) 97,87 %
29.08.2022 15:02 23,9 C 28,9 C 18,3 C 52 % 1021,1 hPa 0,0 l/m 2 min 0 min 744 W/m 6,4 km/h (2 Bft) 100,00 %
29.08.2022 15:04 24,0 C 28,9 C 18,3 C 52 % 1021,1 hPa 0,0 l/m 2 min 0 min 742 W/m 6,4 km/h (2 Bft) 100,00 %
29.08.2022 15:06 24,1 C 28,3 C 18,3 C 51 % 1021,1 hPa 0,0 l/m 2 min 0 min 736 W/m 6,4 km/h (2 Bft) 100,00 %
29.08.2022 15:08 24,1 C 28,9 C 18,3 C 51 % 1021,1 hPa 0,0 l/m 2 min 0 min 734 W/m 6,4 km/h (2 Bft) 97,83 %
29.08.2022 15:10 24,1 C 29,4 C 18,3 C 51 % 1021,1 hPa 0,0 l/m 2 min 0 min 735 W/m 9,7 km/h (2 Bft) 97,87 %
29.08.2022 15:12 24,1 C 28,3 C 18,3 C 51 % 1021,1 hPa 0,0 l/m 2 min 0 min 729 W/m 16,1 km/h (3 Bft) 95,74 %
29.08.2022 15:14 24,1 C 28,3 C 18,3 C 51 % 1021,1 hPa 0,0 l/m 2 min 0 min 727 W/m 6,4 km/h (2 Bft) 97,87 %
29.08.2022 15:16 24,1 C 27,2 C 18,3 C 51 % 1021,1 hPa 0,0 l/m 2 min 0 min 727 W/m 6,4 km/h (2 Bft) 97,87 %
29.08.2022 15:18 24,0 C 26,7 C 18,3 C 50 % 1021,1 hPa 0,0 l/m 2 min 0 min 745 W/m 6,4 km/h (2 Bft) 97,87 %
29.08.2022 15:20 23,9 C 27,2 C 18,3 C 50 % 1021,1 hPa 0,0 l/m 2 min 0 min 754 W/m 12,9 km/h (3 Bft) 95,65 %
29.08.2022 15:22 23,9 C 27,8 C 18,3 C 51 % 1021,1 hPa 0,0 l/m 2 min 0 min 804 W/m 6,4 km/h (2 Bft) 97,87 %
29.08.2022 15:24 23,9 C 28,9 C 18,9 C 51 % 1021,1 hPa 0,0 l/m 2 min 0 min 801 W/m 3,2 km/h (1 Bft) 97,87 %
29.08.2022 15:26 24,1 C 28,3 C 18,9 C 50 % 1021,0 hPa 0,0 l/m 2 min 0 min 751 W/m 6,4 km/h (2 Bft) 97,87 %
29.08.2022 15:28 24,1 C 27,8 C 18,9 C 50 % 1021,0 hPa 0,0 l/m 2 min 0 min 618 W/m 6,4 km/h (2 Bft) 95,74 %
29.08.2022 15:30 24,1 C 27,2 C 18,9 C 50 % 1021,0 hPa 0,0 l/m 2 min 0 min 329 W/m 6,4 km/h (2 Bft) 97,87 %
29.08.2022 15:32 24,1 C 26,7 C 18,9 C 50 % 1021,0 hPa 0,0 l/m 2 min 0 min 348 W/m 6,4 km/h (2 Bft) 95,65 %
29.08.2022 15:34 24,0 C 26,7 C 18,9 C 50 % 1021,0 hPa 0,0 l/m 2 min 0 min 323 W/m 6,4 km/h (2 Bft) 95,74 %
29.08.2022 15:36 23,9 C 26,1 C 18,9 C 50 % 1021,0 hPa 0,0 l/m 2 min 0 min 447 W/m 12,9 km/h (3 Bft) 95,74 %
29.08.2022 15:38 23,9 C 26,1 C 18,3 C 51 % 1021,0 hPa 0,0 l/m 2 min 0 min 791 W/m 9,7 km/h (2 Bft) 95,74 %
29.08.2022 15:40 23,8 C 27,2 C 18,3 C 50 % 1021,0 hPa 0,0 l/m 2 min 0 min 768 W/m 6,4 km/h (2 Bft) 93,62 %
29.08.2022 15:42 23,8 C 27,8 C 18,3 C 51 % 1020,9 hPa 0,0 l/m 2 min 0 min 745 W/m 3,2 km/h (1 Bft) 95,74 %
29.08.2022 15:44 23,9 C 27,8 C 18,3 C 51 % 1020,9 hPa 0,0 l/m 2 min 0 min 673 W/m 12,9 km/h (3 Bft) 93,48 %
29.08.2022 15:46 23,9 C 28,3 C 18,9 C 51 % 1020,9 hPa 0,0 l/m 2 min 0 min 640 W/m 6,4 km/h (2 Bft) 93,62 %
29.08.2022 15:48 24,0 C 27,8 C 18,9 C 50 % 1020,9 hPa 0,0 l/m 2 min 0 min 710 W/m 6,4 km/h (2 Bft) 93,75 %
29.08.2022 15:50 24,1 C 27,8 C 18,9 C 51 % 1020,9 hPa 0,0 l/m 2 min 0 min 710 W/m 12,9 km/h (3 Bft) 93,62 %
29.08.2022 15:52 24,0 C 27,2 C 18,9 C 50 % 1020,8 hPa 0,0 l/m 2 min 0 min 702 W/m 12,9 km/h (3 Bft) 91,30 %
29.08.2022 15:54 24,1 C 27,2 C 18,9 C 50 % 1020,8 hPa 0,0 l/m 2 min 0 min 678 W/m 3,2 km/h (1 Bft) 91,49 %
29.08.2022 15:56 24,1 C 27,8 C 18,9 C 50 % 1020,8 hPa 0,0 l/m 2 min 0 min 674 W/m 6,4 km/h (2 Bft) 93,62 %
29.08.2022 15:58 24,2 C 27,8 C 19,4 C 50 % 1020,8 hPa 0,0 l/m 2 min 0 min 675 W/m 6,4 km/h (2 Bft) 93,62 %
29.08.2022 16:00 24,3 C 27,2 C 19,4 C 49 % 1020,8 hPa 0,0 l/m 2 min 0 min 667 W/m 6,4 km/h (2 Bft) 91,49 %
29.08.2022 16:02 24,4 C 27,2 C 19,4 C 50 % 1020,7 hPa 0,0 l/m 2 min 0 min 656 W/m 6,4 km/h (2 Bft) 95,74 %
29.08.2022 16:04 24,5 C 27,2 C 19,4 C 50 % 1020,7 hPa 0,0 l/m 2 min 0 min 672 W/m 12,9 km/h (3 Bft) 95,65 %
29.08.2022 16:06 24,3 C 27,8 C 18,9 C 48 % 1020,7 hPa 0,0 l/m 2 min 0 min 672 W/m 9,7 km/h (2 Bft) 95,74 %
29.08.2022 16:08 24,3 C 27,2 C 18,9 C 49 % 1020,6 hPa 0,0 l/m 2 min 0 min 666 W/m 12,9 km/h (3 Bft) 95,74 %
29.08.2022 16:10 24,3 C 27,2 C 19,4 C 49 % 1020,6 hPa 0,0 l/m 2 min 0 min 675 W/m 9,7 km/h (2 Bft) 95,74 %
29.08.2022 16:12 24,3 C 27,2 C 19,4 C 49 % 1020,6 hPa 0,0 l/m 2 min 0 min 668 W/m 9,7 km/h (2 Bft) 97,67 %
29.08.2022 16:14 24,2 C 26,7 C 18,9 C 49 % 1020,6 hPa 0,0 l/m 2 min 0 min 659 W/m 12,9 km/h (3 Bft) 97,87 %
29.08.2022 16:16 24,2 C 26,1 C 18,9 C 49 % 1020,6 hPa 0,0 l/m 2 min 0 min 619 W/m 12,9 km/h (3 Bft) 97,87 %
29.08.2022 16:18 24,3 C 25,6 C 18,9 C 49 % 1020,6 hPa 0,0 l/m 2 min 0 min 608 W/m 9,7 km/h (2 Bft) 97,87 %
29.08.2022 16:20 24,3 C 25,6 C 18,9 C 49 % 1020,5 hPa 0,0 l/m 2 min 0 min 613 W/m 6,4 km/h (2 Bft) 97,83 %
29.08.2022 16:22 24,3 C 26,1 C 19,4 C 49 % 1020,5 hPa 0,0 l/m 2 min 0 min 609 W/m 6,4 km/h (2 Bft) 97,87 %
29.08.2022 16:24 24,3 C 26,1 C 18,9 C 49 % 1020,5 hPa 0,0 l/m 2 min 0 min 607 W/m 12,9 km/h (3 Bft) 97,87 %
29.08.2022 16:26 24,3 C 26,7 C 18,9 C 49 % 1020,4 hPa 0,0 l/m 2 min 0 min 560 W/m 9,7 km/h (2 Bft) 97,87 %
29.08.2022 16:28 24,3 C 26,7 C 18,9 C 49 % 1020,4 hPa 0,0 l/m 2 min 0 min 588 W/m 6,4 km/h (2 Bft) 100,00 %
29.08.2022 16:30 24,3 C 26,1 C 18,9 C 49 % 1020,4 hPa 0,0 l/m 2 min 0 min 402 W/m 6,4 km/h (2 Bft) 97,87 %
29.08.2022 16:32 24,4 C 26,7 C 18,9 C 48 % 1020,4 hPa 0,0 l/m 2 min 0 min 376 W/m 3,2 km/h (1 Bft) 100,00 %
29.08.2022 16:34 24,4 C 26,7 C 18,9 C 49 % 1020,4 hPa 0,0 l/m 2 min 0 min 482 W/m 12,9 km/h (3 Bft) 100,00 %
29.08.2022 16:36 24,4 C 27,2 C 18,9 C 50 % 1020,4 hPa 0,0 l/m 2 min 0 min 480 W/m 6,4 km/h (2 Bft) 100,00 %
29.08.2022 16:38 24,4 C 27,2 C 19,4 C 50 % 1020,4 hPa 0,0 l/m 2 min 0 min 544 W/m 16,1 km/h (3 Bft) 100,00 %
29.08.2022 16:40 24,5 C 26,7 C 19,4 C 49 % 1020,4 hPa 0,0 l/m 2 min 0 min 504 W/m 9,7 km/h (2 Bft) 97,87 %
29.08.2022 16:42 24,6 C 26,7 C 19,4 C 49 % 1020,3 hPa 0,0 l/m 2 min 0 min 506 W/m 12,9 km/h (3 Bft) 100,00 %
29.08.2022 16:44 24,6 C 26,1 C 19,4 C 48 % 1020,3 hPa 0,0 l/m 2 min 0 min 340 W/m 9,7 km/h (2 Bft) 100,00 %
29.08.2022 16:46 24,4 C 25,6 C 19,4 C 49 % 1020,4 hPa 0,0 l/m 2 min 0 min 320 W/m 6,4 km/h (2 Bft) 100,00 %
29.08.2022 16:48 24,4 C 26,1 C 19,4 C 50 % 1020,3 hPa 0,0 l/m 2 min 0 min 340 W/m 6,4 km/h (2 Bft) 100,00 %
29.08.2022 16:50 24,3 C 26,1 C 19,4 C 48 % 1020,3 hPa 0,0 l/m 2 min 0 min 446 W/m 9,7 km/h (2 Bft) 100,00 %
29.08.2022 16:52 24,3 C 25,6 C 18,9 C 49 % 1020,4 hPa 0,0 l/m 0 min 0 min 200 W/m 3,2 km/h (1 Bft) 100,00 %
29.08.2022 16:54 24,2 C 25,6 C 18,9 C 49 % 1020,3 hPa 0,0 l/m 0 min 0 min 190 W/m 12,9 km/h (3 Bft) 100,00 %
29.08.2022 16:56 24,2 C 26,1 C 19,4 C 49 % 1020,3 hPa 0,0 l/m 0 min 0 min 190 W/m 6,4 km/h (2 Bft) 95,65 %
29.08.2022 16:58 24,2 C 27,2 C 19,4 C 51 % 1020,3 hPa 0,0 l/m 2 min 0 min 531 W/m 6,4 km/h (2 Bft) 100,00 %
29.08.2022 17:00 24,3 C 27,8 C 19,4 C 49 % 1020,3 hPa 0,0 l/m 2 min 0 min 564 W/m 6,4 km/h (2 Bft) 100,00 %
29.08.2022 17:02 24,4 C 28,3 C 20,0 C 50 % 1020,3 hPa 0,0 l/m 2 min 0 min 528 W/m 6,4 km/h (2 Bft) 97,87 %
29.08.2022 17:04 24,6 C 27,8 C 19,4 C 49 % 1020,3 hPa 0,0 l/m 2 min 0 min 515 W/m 6,4 km/h (2 Bft) 100,00 %
29.08.2022 17:06 24,7 C 27,8 C 20,0 C 50 % 1020,3 hPa 0,0 l/m 2 min 0 min 431 W/m 6,4 km/h (2 Bft) 100,00 %
29.08.2022 17:08 24,7 C 27,8 C 20,0 C 49 % 1020,2 hPa 0,0 l/m 2 min 0 min 493 W/m 9,7 km/h (2 Bft) 100,00 %
29.08.2022 17:10 24,6 C 27,8 C 20,0 C 49 % 1020,3 hPa 0,0 l/m 2 min 0 min 500 W/m 9,7 km/h (2 Bft) 100,00 %
29.08.2022 17:12 24,5 C 28,3 C 20,0 C 48 % 1020,2 hPa 0,0 l/m 2 min 0 min 492 W/m 6,4 km/h (2 Bft) 100,00 %
29.08.2022 17:14 24,4 C 28,3 C 19,4 C 49 % 1020,1 hPa 0,0 l/m 2 min 0 min 482 W/m 3,2 km/h (1 Bft) 100,00 %
29.08.2022 17:16 24,5 C 27,8 C 20,0 C 49 % 1020,1 hPa 0,0 l/m 2 min 0 min 466 W/m 12,9 km/h (3 Bft) 100,00 %
29.08.2022 17:18 24,6 C 28,3 C 20,0 C 49 % 1020,1 hPa 0,0 l/m 2 min 0 min 455 W/m 6,4 km/h (2 Bft) 100,00 %
29.08.2022 17:20 24,7 C 28,3 C 20,0 C 49 % 1020,1 hPa 0,0 l/m 2 min 0 min 463 W/m 6,4 km/h (2 Bft) 97,83 %
29.08.2022 17:22 24,7 C 27,2 C 20,0 C 48 % 1020,0 hPa 0,0 l/m 2 min 0 min 455 W/m 12,9 km/h (3 Bft) 95,74 %
29.08.2022 17:24 24,7 C 27,2 C 20,0 C 49 % 1020,1 hPa 0,0 l/m 2 min 0 min 247 W/m 6,4 km/h (2 Bft) 100,00 %
29.08.2022 17:26 24,7 C 26,1 C 20,0 C 49 % 1020,1 hPa 0,0 l/m 2 min 0 min 223 W/m 6,4 km/h (2 Bft) 100,00 %
29.08.2022 17:28 24,7 C 26,7 C 19,4 C 49 % 1020,0 hPa 0,0 l/m 2 min 0 min 230 W/m 6,4 km/h (2 Bft) 97,87 %
29.08.2022 17:30 24,7 C 27,2 C 20,0 C 49 % 1020,0 hPa 0,0 l/m 2 min 0 min 382 W/m 9,7 km/h (2 Bft) 95,74 %
29.08.2022 17:32 24,7 C 27,2 C 20,0 C 49 % 1020,0 hPa 0,0 l/m 2 min 0 min 427 W/m 9,7 km/h (2 Bft) 97,83 %
29.08.2022 17:34 24,7 C 27,2 C 20,0 C 48 % 1020,0 hPa 0,0 l/m 2 min 0 min 404 W/m 12,9 km/h (3 Bft) 95,74 %
29.08.2022 17:36 24,6 C 27,2 C 20,0 C 48 % 1019,9 hPa 0,0 l/m 2 min 0 min 416 W/m 12,9 km/h (3 Bft) 96,61 %
29.08.2022 17:38 24,7 C 27,2 C 20,0 C 48 % 1019,8 hPa 0,0 l/m 2 min 0 min 421 W/m 6,4 km/h (2 Bft) 97,14 %
29.08.2022 17:40 24,7 C 27,8 C 20,0 C 48 % 1019,9 hPa 0,0 l/m 2 min 0 min 412 W/m 6,4 km/h (2 Bft) 97,87 %
29.08.2022 17:42 24,7 C 28,3 C 20,0 C 48 % 1019,8 hPa 0,0 l/m 2 min 0 min 397 W/m 6,4 km/h (2 Bft) 95,74 %
29.08.2022 17:44 24,7 C 28,3 C 20,0 C 48 % 1019,7 hPa 0,0 l/m 2 min 0 min 400 W/m 6,4 km/h (2 Bft) 97,83 %
29.08.2022 17:46 24,8 C 28,9 C 20,0 C 48 % 1019,8 hPa 0,0 l/m 2 min 0 min 394 W/m 12,9 km/h (3 Bft) 93,62 %
29.08.2022 17:48 24,8 C 27,8 C 20,0 C 48 % 1019,8 hPa 0,0 l/m 2 min 0 min 390 W/m 3,2 km/h (1 Bft) 97,87 %
29.08.2022 17:50 24,9 C 27,8 C 20,0 C 49 % 1019,8 hPa 0,0 l/m 2 min 0 min 390 W/m 6,4 km/h (2 Bft) 95,74 %
29.08.2022 17:52 24,9 C 27,2 C 20,0 C 48 % 1019,7 hPa 0,0 l/m 2 min 0 min 226 W/m 9,7 km/h (2 Bft) 97,87 %
29.08.2022 17:54 24,9 C 27,2 C 20,0 C 49 % 1019,7 hPa 0,0 l/m 2 min 0 min 203 W/m 6,4 km/h (2 Bft) 97,87 %
29.08.2022 17:56 24,9 C 26,7 C 20,0 C 48 % 1019,7 hPa 0,0 l/m 2 min 0 min 320 W/m 6,4 km/h (2 Bft) 95,65 %
29.08.2022 17:58 24,8 C 27,2 C 20,0 C 48 % 1019,7 hPa 0,0 l/m 2 min 0 min 300 W/m 6,4 km/h (2 Bft) 97,87 %
29.08.2022 18:00 24,8 C 26,7 C 20,0 C 49 % 1019,7 hPa 0,0 l/m 2 min 0 min 268 W/m 6,4 km/h (2 Bft) 100,00 %
29.08.2022 18:02 24,8 C 26,7 C 19,4 C 48 % 1019,7 hPa 0,0 l/m 2 min 0 min 308 W/m 9,7 km/h (2 Bft) 100,00 %
29.08.2022 18:04 24,7 C 26,7 C 20,0 C 48 % 1019,7 hPa 0,0 l/m 2 min 0 min 287 W/m 12,9 km/h (3 Bft) 100,00 %
29.08.2022 18:08 24,7 C 27,2 C 20,0 C 48 % 1019,7 hPa 0,0 l/m 4 min 0 min 307 W/m 6,4 km/h (2 Bft) 98,95 %
29.08.2022 18:10 24,7 C 27,2 C 20,0 C 47 % 1019,7 hPa 0,0 l/m 2 min 0 min 227 W/m 3,2 km/h (1 Bft) 100,00 %
29.08.2022 18:12 24,7 C 27,2 C 20,0 C 49 % 1019,7 hPa 0,0 l/m 2 min 0 min 243 W/m 6,4 km/h (2 Bft) 100,00 %
29.08.2022 18:14 24,7 C 27,2 C 20,0 C 48 % 1019,7 hPa 0,0 l/m 2 min 0 min 296 W/m 9,7 km/h (2 Bft) 97,87 %
29.08.2022 18:16 24,7 C 27,2 C 20,0 C 48 % 1019,7 hPa 0,0 l/m 2 min 0 min 285 W/m 6,4 km/h (2 Bft) 97,87 %
29.08.2022 18:18 24,8 C 27,2 C 20,0 C 48 % 1019,7 hPa 0,0 l/m 2 min 0 min 300 W/m 9,7 km/h (2 Bft) 95,65 %
29.08.2022 18:20 24,7 C 27,2 C 20,0 C 48 % 1019,6 hPa 0,0 l/m 2 min 0 min 274 W/m 6,4 km/h (2 Bft) 95,74 %
29.08.2022 18:22 24,8 C 27,2 C 20,0 C 48 % 1019,7 hPa 0,0 l/m 2 min 0 min 308 W/m 9,7 km/h (2 Bft) 97,87 %
29.08.2022 18:24 24,8 C 27,2 C 20,0 C 49 % 1019,7 hPa 0,0 l/m 2 min 0 min 276 W/m 6,4 km/h (2 Bft) 93,62 %
29.08.2022 18:26 24,8 C 26,7 C 20,0 C 47 % 1019,7 hPa 0,0 l/m 2 min 0 min 153 W/m 6,4 km/h (2 Bft) 97,87 %
29.08.2022 18:28 24,8 C 26,7 C 20,0 C 48 % 1019,6 hPa 0,0 l/m 0 min 0 min 144 W/m 6,4 km/h (2 Bft) 97,87 %
29.08.2022 18:30 24,8 C 26,1 C 20,0 C 48 % 1019,6 hPa 0,0 l/m 0 min 0 min 134 W/m 9,7 km/h (2 Bft) 95,65 %
29.08.2022 18:32 24,8 C 26,1 C 20,0 C 48 % 1019,6 hPa 0,0 l/m 2 min 0 min 199 W/m 6,4 km/h (2 Bft) 97,87 %
29.08.2022 18:34 24,8 C 26,1 C 20,0 C 48 % 1019,6 hPa 0,0 l/m 2 min 0 min 163 W/m 9,7 km/h (2 Bft) 93,62 %
29.08.2022 18:36 24,7 C 26,1 C 20,0 C 48 % 1019,7 hPa 0,0 l/m 2 min 0 min 188 W/m 6,4 km/h (2 Bft) 95,74 %
29.08.2022 18:38 24,7 C 25,6 C 20,0 C 47 % 1019,7 hPa 0,0 l/m 2 min 0 min 201 W/m 6,4 km/h (2 Bft) 95,74 %
29.08.2022 18:40 24,6 C 26,1 C 20,0 C 47 % 1019,7 hPa 0,0 l/m 2 min 0 min 196 W/m 6,4 km/h (2 Bft) 95,74 %
29.08.2022 18:42 24,6 C 26,1 C 19,4 C 48 % 1019,7 hPa 0,0 l/m 2 min 0 min 184 W/m 6,4 km/h (2 Bft) 95,65 %
29.08.2022 18:44 24,6 C 25,6 C 19,4 C 48 % 1019,7 hPa 0,0 l/m 2 min 0 min 179 W/m 3,2 km/h (1 Bft) 93,62 %
29.08.2022 18:46 24,6 C 25,0 C 19,4 C 47 % 1019,6 hPa 0,0 l/m 2 min 0 min 128 W/m 6,4 km/h (2 Bft) 93,62 %
29.08.2022 18:48 24,5 C 24,4 C 19,4 C 47 % 1019,6 hPa 0,0 l/m 0 min 0 min 102 W/m 9,7 km/h (2 Bft) 95,74 %
29.08.2022 18:50 24,4 C 23,9 C 19,4 C 48 % 1019,6 hPa 0,0 l/m 0 min 0 min 100 W/m 6,4 km/h (2 Bft) 95,74 %
29.08.2022 18:52 24,4 C 23,9 C 19,4 C 48 % 1019,7 hPa 0,0 l/m 0 min 0 min 100 W/m 6,4 km/h (2 Bft) 95,74 %
29.08.2022 18:54 24,4 C 23,9 C 18,9 C 48 % 1019,7 hPa 0,0 l/m 0 min 0 min 91 W/m 6,4 km/h (2 Bft) 95,65 %
29.08.2022 18:56 24,3 C 23,9 C 18,9 C 48 % 1019,8 hPa 0,0 l/m 0 min 0 min 92 W/m 3,2 km/h (1 Bft) 95,74 %
29.08.2022 18:58 24,2 C 23,9 C 18,9 C 48 % 1019,8 hPa 0,0 l/m 0 min 0 min 98 W/m 6,4 km/h (2 Bft) 95,74 %
29.08.2022 19:00 24,2 C 23,3 C 18,9 C 48 % 1019,7 hPa 0,0 l/m 0 min 0 min 98 W/m 9,7 km/h (2 Bft) 97,87 %
29.08.2022 19:02 24,1 C 23,3 C 18,9 C 49 % 1019,7 hPa 0,0 l/m 0 min 0 min 100 W/m 3,2 km/h (1 Bft) 97,87 %
29.08.2022 19:04 24,1 C 23,3 C 18,9 C 49 % 1019,6 hPa 0,0 l/m 0 min 0 min 92 W/m 3,2 km/h (1 Bft) 95,74 %
29.08.2022 19:06 24,0 C 23,3 C 18,9 C 48 % 1019,6 hPa 0,0 l/m 0 min 0 min 84 W/m 6,4 km/h (2 Bft) 97,87 %
29.08.2022 19:08 23,9 C 23,3 C 18,9 C 50 % 1019,6 hPa 0,0 l/m 0 min 0 min 80 W/m 6,4 km/h (2 Bft) 95,65 %
29.08.2022 19:10 23,9 C 22,8 C 18,9 C 48 % 1019,6 hPa 0,0 l/m 0 min 0 min 83 W/m 6,4 km/h (2 Bft) 97,87 %
29.08.2022 19:12 23,8 C 22,8 C 18,3 C 51 % 1019,6 hPa 0,0 l/m 0 min 0 min 83 W/m 3,2 km/h (1 Bft) 97,87 %
29.08.2022 19:14 23,8 C 22,8 C 18,3 C 51 % 1019,6 hPa 0,0 l/m 0 min 0 min 81 W/m 3,2 km/h (1 Bft) 97,87 %
29.08.2022 19:16 23,7 C 22,8 C 18,3 C 50 % 1019,6 hPa 0,0 l/m 0 min 0 min 75 W/m 3,2 km/h (1 Bft) 97,87 %
29.08.2022 19:18 23,7 C 22,8 C 18,3 C 51 % 1019,6 hPa 0,0 l/m 0 min 0 min 75 W/m 6,4 km/h (2 Bft) 97,83 %
29.08.2022 19:20 23,6 C 22,8 C 18,3 C 51 % 1019,6 hPa 0,0 l/m 0 min 0 min 69 W/m 3,2 km/h (1 Bft) 97,87 %
29.08.2022 19:22 23,6 C 22,8 C 18,3 C 51 % 1019,6 hPa 0,0 l/m 0 min 0 min 59 W/m 3,2 km/h (1 Bft) 97,87 %
29.08.2022 19:24 23,6 C 22,2 C 18,3 C 52 % 1019,6 hPa 0,0 l/m 0 min 0 min 51 W/m 3,2 km/h (1 Bft) 95,74 %
29.08.2022 19:26 23,5 C 22,2 C 18,3 C 52 % 1019,6 hPa 0,0 l/m 0 min 0 min 51 W/m 3,2 km/h (1 Bft) 97,87 %
29.08.2022 19:28 23,4 C 22,2 C 18,3 C 52 % 1019,6 hPa 0,0 l/m 0 min 0 min 53 W/m 3,2 km/h (1 Bft) 95,74 %
29.08.2022 19:30 23,4 C 22,2 C 18,3 C 54 % 1019,6 hPa 0,0 l/m 0 min 0 min 52 W/m 3,2 km/h (1 Bft) 97,83 %
29.08.2022 19:32 23,4 C 22,2 C 18,3 C 54 % 1019,7 hPa 0,0 l/m 0 min 0 min 50 W/m 3,2 km/h (1 Bft) 97,92 %
29.08.2022 19:34 23,3 C 22,2 C 18,3 C 52 % 1019,7 hPa 0,0 l/m 0 min 0 min 51 W/m 3,2 km/h (1 Bft) 97,87 %
29.08.2022 19:36 23,3 C 22,2 C 18,3 C 53 % 1019,6 hPa 0,0 l/m 0 min 0 min 53 W/m 3,2 km/h (1 Bft) 97,87 %
29.08.2022 19:38 23,3 C 22,2 C 17,8 C 54 % 1019,6 hPa 0,0 l/m 0 min 0 min 52 W/m 3,2 km/h (1 Bft) 97,87 %
29.08.2022 19:40 23,2 C 22,2 C 17,8 C 52 % 1019,6 hPa 0,0 l/m 0 min 0 min 46 W/m 3,2 km/h (1 Bft) 97,87 %
29.08.2022 19:42 23,2 C 22,2 C 17,8 C 53 % 1019,6 hPa 0,0 l/m 0 min 0 min 38 W/m 3,2 km/h (1 Bft) 97,83 %
29.08.2022 19:44 23,1 C 21,7 C 17,8 C 54 % 1019,6 hPa 0,0 l/m 0 min 0 min 32 W/m 3,2 km/h (1 Bft) 97,87 %
29.08.2022 19:46 23,1 C 21,7 C 17,8 C 55 % 1019,6 hPa 0,0 l/m 0 min 0 min 30 W/m 3,2 km/h (1 Bft) 97,87 %
29.08.2022 19:48 23,1 C 21,7 C 17,8 C 57 % 1019,6 hPa 0,0 l/m 0 min 0 min 28 W/m 0,0 km/h (0 Bft) 97,87 %
29.08.2022 19:50 23,0 C 21,1 C 17,8 C 56 % 1019,6 hPa 0,0 l/m 0 min 0 min 26 W/m 0,0 km/h (0 Bft) 97,87 %
29.08.2022 19:52 22,9 C 21,1 C 17,2 C 56 % 1019,7 hPa 0,0 l/m 0 min 0 min 23 W/m 0,0 km/h (0 Bft) 97,87 %
29.08.2022 19:54 22,8 C 21,1 C 17,2 C 57 % 1019,6 hPa 0,0 l/m 0 min 0 min 21 W/m 0,0 km/h (0 Bft) 97,83 %
29.08.2022 19:56 22,8 C 21,1 C 17,2 C 55 % 1019,7 hPa 0,0 l/m 0 min 0 min 20 W/m 0,0 km/h (0 Bft) 97,87 %
29.08.2022 19:58 22,7 C 21,1 C 17,2 C 56 % 1019,7 hPa 0,0 l/m 0 min 0 min 17 W/m 0,0 km/h (0 Bft) 93,62 %
29.08.2022 20:00 22,7 C 21,1 C 17,2 C 57 % 1019,7 hPa 0,0 l/m 0 min 0 min 15 W/m 0,0 km/h (0 Bft) 100,00 %
29.08.2022 20:02 22,6 C 21,1 C 17,2 C 55 % 1019,7 hPa 0,0 l/m 0 min 0 min 13 W/m 0,0 km/h (0 Bft) 97,87 %
29.08.2022 20:04 22,6 C 21,1 C 17,2 C 57 % 1019,7 hPa 0,0 l/m 0 min 0 min 12 W/m 0,0 km/h (0 Bft) 100,00 %
29.08.2022 20:06 22,5 C 21,1 C 17,2 C 56 % 1019,7 hPa 0,0 l/m 0 min 0 min 12 W/m 3,2 km/h (1 Bft) 100,00 %
29.08.2022 20:08 22,4 C 21,1 C 17,2 C 54 % 1019,7 hPa 0,0 l/m 0 min 0 min 11 W/m 0,0 km/h (0 Bft) 100,00 %
29.08.2022 20:10 22,4 C 20,6 C 17,2 C 57 % 1019,7 hPa 0,0 l/m 0 min 0 min 11 W/m 0,0 km/h (0 Bft) 97,87 %
29.08.2022 20:12 22,4 C 20,6 C 17,2 C 57 % 1019,7 hPa 0,0 l/m 0 min 0 min 11 W/m 0,0 km/h (0 Bft) 100,00 %
29.08.2022 20:14 22,3 C 20,6 C 17,2 C 55 % 1019,7 hPa 0,0 l/m 0 min 0 min 11 W/m 0,0 km/h (0 Bft) 100,00 %
29.08.2022 20:16 22,3 C 20,6 C 17,2 C 57 % 1019,7 hPa 0,0 l/m 0 min 0 min 9 W/m 0,0 km/h (0 Bft) 100,00 %
29.08.2022 20:18 22,3 C 20,6 C 17,2 C 57 % 1019,6 hPa 0,0 l/m 0 min 0 min 9 W/m 0,0 km/h (0 Bft) 100,00 %
29.08.2022 20:20 22,3 C 20,6 C 16,7 C 58 % 1019,6 hPa 0,0 l/m 0 min 0 min 7 W/m 0,0 km/h (0 Bft) 100,00 %
29.08.2022 20:22 22,2 C 20,6 C 16,7 C 59 % 1019,6 hPa 0,0 l/m 0 min 0 min 7 W/m 0,0 km/h (0 Bft) 100,00 %
29.08.2022 20:24 22,2 C 20,6 C 16,7 C 60 % 1019,6 hPa 0,0 l/m 0 min 0 min 6 W/m 0,0 km/h (0 Bft) 100,00 %
29.08.2022 20:26 22,2 C 20,6 C 16,7 C 59 % 1019,7 hPa 0,0 l/m 0 min 0 min 5 W/m 0,0 km/h (0 Bft) 97,83 %
29.08.2022 20:28 22,1 C 20,6 C 16,7 C 58 % 1019,6 hPa 0,0 l/m 0 min 0 min 5 W/m 3,2 km/h (1 Bft) 100,00 %
29.08.2022 20:30 22,1 C 20,6 C 16,7 C 59 % 1019,6 hPa 0,0 l/m 0 min 0 min 4 W/m 0,0 km/h (0 Bft) 100,00 %
29.08.2022 20:32 22,1 C 20,6 C 16,7 C 57 % 1019,6 hPa 0,0 l/m 0 min 0 min 0 W/m 0,0 km/h (0 Bft) 100,00 %
29.08.2022 20:34 22,0 C 20,6 C 16,1 C 58 % 1019,6 hPa 0,0 l/m 0 min 0 min 0 W/m 0,0 km/h (0 Bft) 97,87 %
29.08.2022 20:36 21,9 C 20,6 C 16,1 C 57 % 1019,6 hPa 0,0 l/m 0 min 0 min 0 W/m 0,0 km/h (0 Bft) 100,00 %
29.08.2022 20:38 21,9 C 20,6 C 16,1 C 58 % 1019,6 hPa 0,0 l/m 0 min 0 min 0 W/m 0,0 km/h (0 Bft) 100,00 %
29.08.2022 20:40 21,9 C 20,6 C 16,1 C 57 % 1019,6 hPa 0,0 l/m 0 min 0 min 0 W/m 0,0 km/h (0 Bft) 97,87 %
29.08.2022 20:42 21,8 C 20,6 C 16,1 C 58 % 1019,6 hPa 0,0 l/m 0 min 0 min 0 W/m 0,0 km/h (0 Bft) 100,00 %
29.08.2022 20:44 21,8 C 20,6 C 16,1 C 57 % 1019,6 hPa 0,0 l/m 0 min 0 min 0 W/m 0,0 km/h (0 Bft) 97,87 %
29.08.2022 20:46 21,8 C 20,6 C 16,1 C 57 % 1019,6 hPa 0,0 l/m 0 min 0 min 0 W/m 3,2 km/h (1 Bft) 100,00 %
29.08.2022 20:48 21,7 C 20,0 C 16,1 C 57 % 1019,6 hPa 0,0 l/m 0 min 0 min 0 W/m 0,0 km/h (0 Bft) 97,87 %
29.08.2022 20:50 21,7 C 20,0 C 16,1 C 56 % 1019,6 hPa 0,0 l/m 0 min 0 min 0 W/m 0,0 km/h (0 Bft) 95,65 %
29.08.2022 20:52 21,7 C 20,0 C 16,1 C 57 % 1019,6 hPa 0,0 l/m 0 min 0 min 0 W/m 0,0 km/h (0 Bft) 97,87 %
29.08.2022 20:54 21,6 C 20,0 C 16,1 C 58 % 1019,6 hPa 0,0 l/m 0 min 0 min 0 W/m 0,0 km/h (0 Bft) 97,87 %
29.08.2022 20:56 21,6 C 20,0 C 15,6 C 58 % 1019,7 hPa 0,0 l/m 0 min 0 min 0 W/m 3,2 km/h (1 Bft) 97,87 %
29.08.2022 20:58 21,6 C 20,0 C 15,6 C 58 % 1019,7 hPa 0,0 l/m 0 min 0 min 0 W/m 3,2 km/h (1 Bft) 97,87 %
29.08.2022 21:00 21,5 C 20,0 C 15,6 C 58 % 1019,7 hPa 0,0 l/m 0 min 0 min 0 W/m 0,0 km/h (0 Bft) 97,87 %
29.08.2022 21:02 21,5 C 20,0 C 15,6 C 58 % 1019,7 hPa 0,0 l/m 0 min 0 min 0 W/m 0,0 km/h (0 Bft) 95,65 %
29.08.2022 21:04 21,4 C 20,0 C 15,6 C 58 % 1019,7 hPa 0,0 l/m 0 min 0 min 0 W/m 0,0 km/h (0 Bft) 95,74 %
29.08.2022 21:06 21,4 C 20,0 C 15,6 C 59 % 1019,6 hPa 0,0 l/m 0 min 0 min 0 W/m 0,0 km/h (0 Bft) 97,87 %
29.08.2022 21:08 21,4 C 20,0 C 15,6 C 58 % 1019,6 hPa 0,0 l/m 0 min 0 min 0 W/m 0,0 km/h (0 Bft) 97,87 %
29.08.2022 21:10 21,3 C 20,0 C 15,6 C 57 % 1019,6 hPa 0,0 l/m 0 min 0 min 0 W/m 0,0 km/h (0 Bft) 97,87 %
29.08.2022 21:12 21,3 C 20,0 C 15,6 C 57 % 1019,7 hPa 0,0 l/m 0 min 0 min 0 W/m 0,0 km/h (0 Bft) 95,74 %
29.08.2022 21:14 21,3 C 20,0 C 15,6 C 58 % 1019,7 hPa 0,0 l/m 0 min 0 min 0 W/m 0,0 km/h (0 Bft) 97,83 %
29.08.2022 21:16 21,2 C 20,0 C 15,6 C 59 % 1019,7 hPa 0,0 l/m 0 min 0 min 0 W/m 0,0 km/h (0 Bft) 97,87 %
29.08.2022 21:18 21,2 C 20,0 C 15,6 C 59 % 1019,7 hPa 0,0 l/m 0 min 0 min 0 W/m 0,0 km/h (0 Bft) 91,49 %
29.08.2022 21:20 21,2 C 20,0 C 15,6 C 59 % 1019,7 hPa 0,0 l/m 0 min 0 min 0 W/m 0,0 km/h (0 Bft) 97,87 %
29.08.2022 21:22 21,1 C 20,0 C 15,6 C 58 % 1019,7 hPa 0,0 l/m 0 min 0 min 0 W/m 0,0 km/h (0 Bft) 93,62 %
29.08.2022 21:24 21,1 C 19,4 C 15,6 C 59 % 1019,8 hPa 0,0 l/m 0 min 0 min 0 W/m 0,0 km/h (0 Bft) 97,87 %
29.08.2022 21:26 21,1 C 19,4 C 15,6 C 59 % 1019,7 hPa 0,0 l/m 0 min 0 min 0 W/m 0,0 km/h (0 Bft) 93,48 %
29.08.2022 21:28 21,1 C 19,4 C 15,6 C 59 % 1019,8 hPa 0,0 l/m 0 min 0 min 0 W/m 0,0 km/h (0 Bft) 93,62 %
29.08.2022 21:30 21,1 C 19,4 C 15,6 C 59 % 1019,8 hPa 0,0 l/m 0 min 0 min 0 W/m 0,0 km/h (0 Bft) 95,74 %
29.08.2022 21:32 21,0 C 19,4 C 15,0 C 59 % 1019,8 hPa 0,0 l/m 0 min 0 min 0 W/m 0,0 km/h (0 Bft) 95,74 %
29.08.2022 21:34 20,9 C 19,4 C 15,0 C 60 % 1019,8 hPa 0,0 l/m 0 min 0 min 0 W/m 0,0 km/h (0 Bft) 93,62 %
29.08.2022 21:36 20,9 C 19,4 C 15,0 C 60 % 1019,9 hPa 0,0 l/m 0 min 0 min 0 W/m 0,0 km/h (0 Bft) 93,62 %
29.08.2022 21:38 20,9 C 18,9 C 15,0 C 60 % 1019,8 hPa 0,0 l/m 0 min 0 min 0 W/m 0,0 km/h (0 Bft) 93,48 %
29.08.2022 21:40 20,8 C 18,9 C 15,0 C 59 % 1019,8 hPa 0,0 l/m 0 min 0 min 0 W/m 0,0 km/h (0 Bft) 93,62 %
29.08.2022 21:42 20,8 C 18,9 C 15,0 C 60 % 1019,8 hPa 0,0 l/m 0 min 0 min 0 W/m 0,0 km/h (0 Bft) 93,62 %
29.08.2022 21:44 20,7 C 18,9 C 14,4 C 61 % 1019,8 hPa 0,0 l/m 0 min 0 min 0 W/m 0,0 km/h (0 Bft) 93,62 %
29.08.2022 21:46 20,7 C 18,9 C 14,4 C 62 % 1019,8 hPa 0,0 l/m 0 min 0 min 0 W/m 0,0 km/h (0 Bft) 95,74 %
29.08.2022 21:48 20,6 C 18,9 C 14,4 C 62 % 1019,8 hPa 0,0 l/m 0 min 0 min 0 W/m 0,0 km/h (0 Bft) 95,74 %
29.08.2022 21:50 20,6 C 18,9 C 14,4 C 62 % 1019,9 hPa 0,0 l/m 0 min 0 min 0 W/m 0,0 km/h (0 Bft) 95,65 %
29.08.2022 21:52 20,6 C 18,9 C 14,4 C 63 % 1019,9 hPa 0,0 l/m 0 min 0 min 0 W/m 0,0 km/h (0 Bft) 95,74 %
29.08.2022 21:54 20,5 C 18,3 C 14,4 C 63 % 1019,9 hPa 0,0 l/m 0 min 0 min 0 W/m 0,0 km/h (0 Bft) 93,62 %
29.08.2022 21:56 20,5 C 18,3 C 14,4 C 63 % 1019,9 hPa 0,0 l/m 0 min 0 min 0 W/m 0,0 km/h (0 Bft) 93,62 %
29.08.2022 21:58 20,4 C 18,3 C 14,4 C 63 % 1019,9 hPa 0,0 l/m 0 min 0 min 0 W/m 0,0 km/h (0 Bft) 95,74 %
29.08.2022 22:00 20,4 C 18,3 C 14,4 C 63 % 1019,9 hPa 0,0 l/m 0 min 0 min 0 W/m 0,0 km/h (0 Bft) 54,55 %
29.08.2022 22:02 20,3 C 18,3 C 14,4 C 62 % 1019,9 hPa 0,0 l/m 0 min 0 min 0 W/m 0,0 km/h (0 Bft) 93,48 %
29.08.2022 22:04 20,3 C 18,3 C 14,4 C 62 % 1019,9 hPa 0,0 l/m 0 min 0 min 0 W/m 0,0 km/h (0 Bft) 97,87 %
29.08.2022 22:06 20,2 C 18,3 C 14,4 C 63 % 1019,9 hPa 0,0 l/m 0 min 0 min 0 W/m 0,0 km/h (0 Bft) 97,87 %
29.08.2022 22:08 20,2 C 18,3 C 14,4 C 63 % 1019,8 hPa 0,0 l/m 0 min 0 min 0 W/m 0,0 km/h (0 Bft) 97,87 %
29.08.2022 22:10 20,1 C 18,3 C 13,9 C 63 % 1019,8 hPa 0,0 l/m 0 min 0 min 0 W/m 0,0 km/h (0 Bft) 97,87 %
29.08.2022 22:12 20,1 C 18,3 C 14,4 C 63 % 1019,8 hPa 0,0 l/m 0 min 0 min 0 W/m 0,0 km/h (0 Bft) 97,87 %
29.08.2022 22:14 20,1 C 18,3 C 14,4 C 63 % 1019,8 hPa 0,0 l/m 0 min 0 min 0 W/m 0,0 km/h (0 Bft) 100,00 %
29.08.2022 22:16 20,0 C 18,3 C 14,4 C 63 % 1019,8 hPa 0,0 l/m 0 min 0 min 0 W/m 0,0 km/h (0 Bft) 100,00 %
29.08.2022 22:18 19,9 C 18,3 C 14,4 C 64 % 1019,8 hPa 0,0 l/m 0 min 0 min 0 W/m 0,0 km/h (0 Bft) 100,00 %
29.08.2022 22:20 19,9 C 18,3 C 14,4 C 65 % 1019,8 hPa 0,0 l/m 0 min 0 min 0 W/m 0,0 km/h (0 Bft) 100,00 %
29.08.2022 22:22 19,9 C 18,3 C 14,4 C 65 % 1019,8 hPa 0,0 l/m 0 min 0 min 0 W/m 0,0 km/h (0 Bft) 100,00 %
29.08.2022 22:24 19,9 C 18,3 C 14,4 C 66 % 1019,8 hPa 0,0 l/m 0 min 0 min 0 W/m 0,0 km/h (0 Bft) 100,00 %
29.08.2022 22:26 19,8 C 18,3 C 14,4 C 66 % 1019,8 hPa 0,0 l/m 0 min 0 min 0 W/m 0,0 km/h (0 Bft) 97,83 %
29.08.2022 22:28 19,8 C 18,3 C 14,4 C 65 % 1019,8 hPa 0,0 l/m 0 min 0 min 0 W/m 0,0 km/h (0 Bft) 100,00 %
29.08.2022 22:30 19,8 C 18,3 C 14,4 C 65 % 1019,8 hPa 0,0 l/m 0 min 0 min 0 W/m 0,0 km/h (0 Bft) 100,00 %
29.08.2022 22:32 19,7 C 18,3 C 14,4 C 66 % 1019,9 hPa 0,0 l/m 0 min 0 min 0 W/m 0,0 km/h (0 Bft) 93,62 %
29.08.2022 22:34 19,7 C 18,3 C 14,4 C 65 % 1019,8 hPa 0,0 l/m 0 min 0 min 0 W/m 0,0 km/h (0 Bft) 100,00 %
29.08.2022 22:36 19,6 C 18,3 C 14,4 C 66 % 1019,8 hPa 0,0 l/m 0 min 0 min 0 W/m 0,0 km/h (0 Bft) 100,00 %
29.08.2022 22:38 19,6 C 18,3 C 14,4 C 67 % 1019,9 hPa 0,0 l/m 0 min 0 min 0 W/m 0,0 km/h (0 Bft) 100,00 %
29.08.2022 22:40 19,6 C 18,3 C 14,4 C 67 % 1019,8 hPa 0,0 l/m 0 min 0 min 0 W/m 0,0 km/h (0 Bft) 100,00 %
29.08.2022 22:42 19,6 C 18,3 C 14,4 C 67 % 1019,8 hPa 0,0 l/m 0 min 0 min 0 W/m 0,0 km/h (0 Bft) 100,00 %
29.08.2022 22:44 19,6 C 18,3 C 14,4 C 67 % 1019,9 hPa 0,0 l/m 0 min 0 min 0 W/m 0,0 km/h (0 Bft) 100,00 %
29.08.2022 22:46 19,5 C 18,3 C 14,4 C 68 % 1019,9 hPa 0,0 l/m 0 min 0 min 0 W/m 0,0 km/h (0 Bft) 97,87 %
29.08.2022 22:48 19,5 C 18,3 C 14,4 C 68 % 1019,9 hPa 0,0 l/m 0 min 0 min 0 W/m 0,0 km/h (0 Bft) 100,00 %
29.08.2022 22:50 19,5 C 18,3 C 14,4 C 68 % 1019,9 hPa 0,0 l/m 0 min 0 min 0 W/m 0,0 km/h (0 Bft) 100,00 %
29.08.2022 22:52 19,4 C 18,3 C 14,4 C 68 % 1019,9 hPa 0,0 l/m 0 min 0 min 0 W/m 0,0 km/h (0 Bft) 100,00 %
29.08.2022 22:54 19,4 C 18,3 C 14,4 C 68 % 1019,9 hPa 0,0 l/m 0 min 0 min 0 W/m 0,0 km/h (0 Bft) 100,00 %
29.08.2022 22:56 19,4 C 18,3 C 14,4 C 68 % 1019,9 hPa 0,0 l/m 0 min 0 min 0 W/m 0,0 km/h (0 Bft) 97,87 %
29.08.2022 22:58 19,4 C 18,3 C 14,4 C 68 % 1020,0 hPa 0,0 l/m 0 min 0 min 0 W/m 0,0 km/h (0 Bft) 100,00 %
29.08.2022 23:00 19,4 C 18,3 C 14,4 C 68 % 1020,0 hPa 0,0 l/m 0 min 0 min 0 W/m 0,0 km/h (0 Bft) 100,00 %
29.08.2022 23:02 19,3 C 18,3 C 14,4 C 68 % 1020,0 hPa 0,0 l/m 0 min 0 min 0 W/m 0,0 km/h (0 Bft) 97,83 %
29.08.2022 23:04 19,3 C 18,3 C 14,4 C 68 % 1020,0 hPa 0,0 l/m 0 min 0 min 0 W/m 0,0 km/h (0 Bft) 100,00 %
29.08.2022 23:06 19,3 C 18,3 C 14,4 C 69 % 1020,0 hPa 0,0 l/m 0 min 0 min 0 W/m 0,0 km/h (0 Bft) 100,00 %
29.08.2022 23:08 19,3 C 18,3 C 14,4 C 69 % 1020,0 hPa 0,0 l/m 0 min 0 min 0 W/m 0,0 km/h (0 Bft) 100,00 %
29.08.2022 23:10 19,3 C 18,3 C 14,4 C 69 % 1020,0 hPa 0,0 l/m 0 min 0 min 0 W/m 0,0 km/h (0 Bft) 97,87 %
29.08.2022 23:12 19,3 C 18,3 C 14,4 C 69 % 1020,0 hPa 0,0 l/m 0 min 0 min 0 W/m 0,0 km/h (0 Bft) 100,00 %
29.08.2022 23:14 19,3 C 18,3 C 14,4 C 69 % 1020,0 hPa 0,0 l/m 0 min 0 min 0 W/m 0,0 km/h (0 Bft) 97,87 %
29.08.2022 23:16 19,3 C 18,3 C 13,9 C 69 % 1019,9 hPa 0,0 l/m 0 min 0 min 0 W/m 0,0 km/h (0 Bft) 97,87 %
29.08.2022 23:18 19,3 C 18,3 C 13,9 C 69 % 1019,9 hPa 0,0 l/m 0 min 0 min 0 W/m 0,0 km/h (0 Bft) 97,87 %
29.08.2022 23:20 19,3 C 17,8 C 13,9 C 69 % 1020,0 hPa 0,0 l/m 0 min 0 min 0 W/m 0,0 km/h (0 Bft) 97,87 %
29.08.2022 23:22 19,3 C 17,8 C 13,9 C 70 % 1019,9 hPa 0,0 l/m 0 min 0 min 0 W/m 0,0 km/h (0 Bft) 97,87 %
29.08.2022 23:24 19,2 C 17,8 C 13,9 C 70 % 1019,9 hPa 0,0 l/m 0 min 0 min 0 W/m 0,0 km/h (0 Bft) 97,87 %
29.08.2022 23:26 19,2 C 17,8 C 13,9 C 70 % 1019,9 hPa 0,0 l/m 0 min 0 min 0 W/m 0,0 km/h (0 Bft) 97,83 %
29.08.2022 23:28 19,2 C 17,8 C 13,9 C 70 % 1020,0 hPa 0,0 l/m 0 min 0 min 0 W/m 0,0 km/h (0 Bft) 97,87 %
29.08.2022 23:30 19,1 C 17,8 C 13,9 C 70 % 1020,0 hPa 0,0 l/m 0 min 0 min 0 W/m 0,0 km/h (0 Bft) 97,87 %
29.08.2022 23:32 19,1 C 17,8 C 13,9 C 70 % 1019,9 hPa 0,0 l/m 0 min 0 min 0 W/m 0,0 km/h (0 Bft) 97,87 %
29.08.2022 23:34 19,1 C 17,8 C 13,9 C 70 % 1019,9 hPa 0,0 l/m 0 min 0 min 0 W/m 0,0 km/h (0 Bft) 97,87 %
29.08.2022 23:36 19,1 C 17,8 C 13,9 C 71 % 1019,9 hPa 0,0 l/m 0 min 0 min 0 W/m 0,0 km/h (0 Bft) 97,83 %
29.08.2022 23:38 19,1 C 17,8 C 13,9 C 72 % 1019,9 hPa 0,0 l/m 0 min 0 min 0 W/m 0,0 km/h (0 Bft) 97,87 %
29.08.2022 23:40 19,1 C 17,8 C 13,9 C 71 % 1019,9 hPa 0,0 l/m 0 min 0 min 0 W/m 0,0 km/h (0 Bft) 95,74 %
29.08.2022 23:42 19,0 C 17,8 C 13,9 C 71 % 1019,8 hPa 0,0 l/m 0 min 0 min 0 W/m 3,2 km/h (1 Bft) 97,87 %
29.08.2022 23:44 18,9 C 17,8 C 13,9 C 71 % 1019,8 hPa 0,0 l/m 0 min 0 min 0 W/m 3,2 km/h (1 Bft) 100,00 %
29.08.2022 23:46 18,9 C 17,8 C 13,9 C 71 % 1019,8 hPa 0,0 l/m 0 min 0 min 0 W/m 3,2 km/h (1 Bft) 97,87 %
29.08.2022 23:48 18,9 C 17,8 C 13,9 C 70 % 1019,8 hPa 0,0 l/m 0 min 0 min 0 W/m 3,2 km/h (1 Bft) 100,00 %
29.08.2022 23:50 18,9 C 17,8 C 13,9 C 71 % 1019,8 hPa 0,0 l/m 0 min 0 min 0 W/m 0,0 km/h (0 Bft) 100,00 %
29.08.2022 23:52 18,9 C 17,8 C 13,9 C 71 % 1019,8 hPa 0,0 l/m 0 min 0 min 0 W/m 3,2 km/h (1 Bft) 97,87 %
29.08.2022 23:54 18,9 C 17,8 C 13,9 C 72 % 1019,8 hPa 0,0 l/m 0 min 0 min 0 W/m 3,2 km/h (1 Bft) 100,00 %
29.08.2022 23:56 18,8 C 17,8 C 13,9 C 71 % 1019,9 hPa 0,0 l/m 0 min 0 min 0 W/m 0,0 km/h (0 Bft) 95,74 %
29.08.2022 23:58 18,8 C 17,8 C 13,9 C 72 % 1019,9 hPa 0,0 l/m 0 min 0 min 0 W/m 0,0 km/h (0 Bft) 95,74 %
_ Min-Zeit 06:26 05:28 05:38 18:10 18:20 - - - - 01:10 22:00
Minimum _ 12,2 C 11,1 C 8,3 C 47 % 1019,6 hPa - - - - 0,0 km/h (0 Bft) 54,55 %
_ Max-Zeit 17:50 14:16 17:02 07:36 11:32 00:00 12:08 00:00 11:44 11:00 00:17
Maximum _ 24,9 C 31,1 C 20,0 C 92 % 1022,9 hPa 0,0 l/m 4 min 0 min 846 W/m 19,3 km/h
O (3 Bft)
100,00 %
Durchschnitt _ 18,6 C 19,1 C 14,2 C 69 % 1021,3 hPa #0,0 l/m #8:10 h #0 min. 371 W/m 3,9 km/h (1 Bft) 97,54 %
© 2022 W. Hausmann